<?xml version="1.0" encoding="UTF-8" standalone="no" ?>
<gpx xmlns="http://www.topografix.com/GPX/1/1" xmlns:xsi="http://www.w3.org/2001/XMLSchema-instance" xsi:schemaLocation="http://www.topografix.com/GPX/1/1 http://www.topografix.com/GPX/1/1/gpx.xsd" version="1.1" creator="VisuGPX - https://www.visugpx.com">
  <metadata>
    <name>Belle vue – Château de Lourmarin boucle au départ de Lourmarin</name>
  </metadata>
  <trk>
    <name><![CDATA[Belle vue – Château de Lourmarin boucle au départ de Lourmarin]]></name>
    <trkseg>
      <trkpt lat="43.76816" lon="5.38167">
        <ele>264.845407</ele>
        <time>2024-01-30T09:59:05.346Z</time>
      </trkpt>
      <trkpt lat="43.76843" lon="5.38178">
        <ele>264.845407</ele>
        <time>2024-01-30T09:59:25.295Z</time>
      </trkpt>
      <trkpt lat="43.76869" lon="5.38188">
        <ele>264.845407</ele>
        <time>2024-01-30T09:59:34.783Z</time>
      </trkpt>
      <trkpt lat="43.76872" lon="5.38197">
        <ele>264.845407</ele>
        <time>2024-01-30T09:59:37.343Z</time>
      </trkpt>
      <trkpt lat="43.76912" lon="5.3821">
        <ele>265.290604</ele>
        <time>2024-01-30T09:59:50.607Z</time>
      </trkpt>
      <trkpt lat="43.76918" lon="5.38209">
        <ele>265.480502</ele>
        <time>2024-01-30T09:59:52.563Z</time>
      </trkpt>
      <trkpt lat="43.7696" lon="5.38177">
        <ele>267.011992</ele>
        <time>2024-01-30T10:00:09.887Z</time>
      </trkpt>
      <trkpt lat="43.76969" lon="5.38191">
        <ele>267.441936</ele>
        <time>2024-01-30T10:00:15.158Z</time>
      </trkpt>
      <trkpt lat="43.76988" lon="5.38198">
        <ele>268.072494</ele>
        <time>2024-01-30T10:00:22.439Z</time>
      </trkpt>
      <trkpt lat="43.77084" lon="5.38231">
        <ele>271.336044</ele>
        <time>2024-01-30T10:00:58.891Z</time>
      </trkpt>
      <trkpt lat="43.77097" lon="5.38231">
        <ele>271.829929</ele>
        <time>2024-01-30T10:01:03.676Z</time>
      </trkpt>
      <trkpt lat="43.77103" lon="5.38241">
        <ele>272.196863</ele>
        <time>2024-01-30T10:01:07.431Z</time>
      </trkpt>
      <trkpt lat="43.77158" lon="5.38283">
        <ele>274.62662</ele>
        <time>2024-01-30T10:01:32.372Z</time>
      </trkpt>
      <trkpt lat="43.77169" lon="5.38287">
        <ele>275.065842</ele>
        <time>2024-01-30T10:01:37.014Z</time>
      </trkpt>
      <trkpt lat="43.77183" lon="5.38351">
        <ele>276.924929</ele>
        <time>2024-01-30T10:01:56.047Z</time>
      </trkpt>
      <trkpt lat="43.77189" lon="5.38398">
        <ele>278.374321</ele>
        <time>2024-01-30T10:02:09.873Z</time>
      </trkpt>
      <trkpt lat="43.7719" lon="5.38431">
        <ele>279.4346</ele>
        <time>2024-01-30T10:02:19.491Z</time>
      </trkpt>
      <trkpt lat="43.77214" lon="5.38462">
        <ele>280.904311</ele>
        <time>2024-01-30T10:02:33.116Z</time>
      </trkpt>
      <trkpt lat="43.77274" lon="5.38525">
        <ele>284.291306</ele>
        <time>2024-01-30T10:03:05.533Z</time>
      </trkpt>
      <trkpt lat="43.77356" lon="5.38575">
        <ele>288.329078</ele>
        <time>2024-01-30T10:03:46.070Z</time>
      </trkpt>
      <trkpt lat="43.77395" lon="5.38613">
        <ele>290.467314</ele>
        <time>2024-01-30T10:04:06.195Z</time>
      </trkpt>
      <trkpt lat="43.77413" lon="5.38631">
        <ele>291.489008</ele>
        <time>2024-01-30T10:04:15.702Z</time>
      </trkpt>
      <trkpt lat="43.77432" lon="5.38638">
        <ele>292.353225</ele>
        <time>2024-01-30T10:04:23.433Z</time>
      </trkpt>
      <trkpt lat="43.77434" lon="5.38645">
        <ele>292.600966</ele>
        <time>2024-01-30T10:04:26.393Z</time>
      </trkpt>
      <trkpt lat="43.77444" lon="5.3865">
        <ele>293.059709</ele>
        <time>2024-01-30T10:04:31.677Z</time>
      </trkpt>
      <trkpt lat="43.77471" lon="5.38655">
        <ele>294.240866</ele>
        <time>2024-01-30T10:04:46.027Z</time>
      </trkpt>
      <trkpt lat="43.77593" lon="5.38644">
        <ele>299.294154</ele>
        <time>2024-01-30T10:05:49.823Z</time>
      </trkpt>
      <trkpt lat="43.77631" lon="5.38655">
        <ele>300.895577</ele>
        <time>2024-01-30T10:06:10.030Z</time>
      </trkpt>
      <trkpt lat="43.77647" lon="5.38656">
        <ele>301.561756</ele>
        <time>2024-01-30T10:06:18.225Z</time>
      </trkpt>
      <trkpt lat="43.7768" lon="5.38645">
        <ele>303.118419</ele>
        <time>2024-01-30T10:06:36.908Z</time>
      </trkpt>
      <trkpt lat="43.77702" lon="5.38639">
        <ele>304.093933</ele>
        <time>2024-01-30T10:06:48.774Z</time>
      </trkpt>
      <trkpt lat="43.77724" lon="5.38628">
        <ele>305.17283</ele>
        <time>2024-01-30T10:07:02.145Z</time>
      </trkpt>
      <trkpt lat="43.77832" lon="5.3856">
        <ele>310.719301</ele>
        <time>2024-01-30T10:08:06.312Z</time>
      </trkpt>
      <trkpt lat="43.77849" lon="5.38557">
        <ele>311.673755</ele>
        <time>2024-01-30T10:08:16.091Z</time>
      </trkpt>
      <trkpt lat="43.77851" lon="5.38548">
        <ele>312.023937</ele>
        <time>2024-01-30T10:08:19.515Z</time>
      </trkpt>
      <trkpt lat="43.77856" lon="5.38541">
        <ele>312.41345</ele>
        <time>2024-01-30T10:08:23.631Z</time>
      </trkpt>
      <trkpt lat="43.77869" lon="5.38552">
        <ele>313.210705</ele>
        <time>2024-01-30T10:08:32.474Z</time>
      </trkpt>
      <trkpt lat="43.77861" lon="5.38551">
        <ele>313.634091</ele>
        <time>2024-01-30T10:08:36.638Z</time>
      </trkpt>
      <trkpt lat="43.77862" lon="5.38586">
        <ele>314.992092</ele>
        <time>2024-01-30T10:08:51.622Z</time>
      </trkpt>
      <trkpt lat="43.77869" lon="5.38616">
        <ele>316.187642</ele>
        <time>2024-01-30T10:09:04.582Z</time>
      </trkpt>
      <trkpt lat="43.77865" lon="5.3865">
        <ele>317.526411</ele>
        <time>2024-01-30T10:09:20.042Z</time>
      </trkpt>
      <trkpt lat="43.7787" lon="5.38671">
        <ele>318.413334</ele>
        <time>2024-01-30T10:09:30.501Z</time>
      </trkpt>
      <trkpt lat="43.77883" lon="5.38698">
        <ele>319.986396</ele>
        <time>2024-01-30T10:09:45.136Z</time>
      </trkpt>
      <trkpt lat="43.77887" lon="5.38724">
        <ele>321.426543</ele>
        <time>2024-01-30T10:09:57.677Z</time>
      </trkpt>
      <trkpt lat="43.77888" lon="5.38761">
        <ele>323.487742</ele>
        <time>2024-01-30T10:10:15.526Z</time>
      </trkpt>
      <trkpt lat="43.77903" lon="5.38811">
        <ele>326.469336</ele>
        <time>2024-01-30T10:10:43.056Z</time>
      </trkpt>
      <trkpt lat="43.77909" lon="5.38849">
        <ele>328.634642</ele>
        <time>2024-01-30T10:11:03.924Z</time>
      </trkpt>
      <trkpt lat="43.77918" lon="5.38874">
        <ele>330.183862</ele>
        <time>2024-01-30T10:11:19.108Z</time>
      </trkpt>
      <trkpt lat="43.77955" lon="5.38929">
        <ele>334.192902</ele>
        <time>2024-01-30T10:12:00.118Z</time>
      </trkpt>
      <trkpt lat="43.77959" lon="5.38942">
        <ele>334.940497</ele>
        <time>2024-01-30T10:12:07.942Z</time>
      </trkpt>
      <trkpt lat="43.77959" lon="5.38954">
        <ele>335.53399</ele>
        <time>2024-01-30T10:12:13.963Z</time>
      </trkpt>
      <trkpt lat="43.7795" lon="5.3901">
        <ele>338.460548</ele>
        <time>2024-01-30T10:12:42.893Z</time>
      </trkpt>
      <trkpt lat="43.77948" lon="5.39051">
        <ele>340.502828</ele>
        <time>2024-01-30T10:13:02.142Z</time>
      </trkpt>
      <trkpt lat="43.77961" lon="5.39095">
        <ele>342.915497</ele>
        <time>2024-01-30T10:13:23.539Z</time>
      </trkpt>
      <trkpt lat="43.77957" lon="5.39128">
        <ele>344.606409</ele>
        <time>2024-01-30T10:13:38.277Z</time>
      </trkpt>
      <trkpt lat="43.7796" lon="5.39167">
        <ele>346.329681</ele>
        <time>2024-01-30T10:13:54.988Z</time>
      </trkpt>
      <trkpt lat="43.77972" lon="5.393">
        <ele>351.755514</ele>
        <time>2024-01-30T10:14:51.741Z</time>
      </trkpt>
      <trkpt lat="43.77965" lon="5.39327">
        <ele>352.935604</ele>
        <time>2024-01-30T10:15:04.384Z</time>
      </trkpt>
      <trkpt lat="43.77965" lon="5.39346">
        <ele>353.719246</ele>
        <time>2024-01-30T10:15:12.321Z</time>
      </trkpt>
      <trkpt lat="43.77971" lon="5.39381">
        <ele>355.173135</ele>
        <time>2024-01-30T10:15:28.145Z</time>
      </trkpt>
      <trkpt lat="43.77971" lon="5.39416">
        <ele>356.812648</ele>
        <time>2024-01-30T10:15:43.580Z</time>
      </trkpt>
      <trkpt lat="43.77973" lon="5.3943">
        <ele>357.504826</ele>
        <time>2024-01-30T10:15:50.389Z</time>
      </trkpt>
      <trkpt lat="43.77997" lon="5.39429">
        <ele>359.084707</ele>
        <time>2024-01-30T10:16:05.504Z</time>
      </trkpt>
      <trkpt lat="43.78001" lon="5.39441">
        <ele>359.72847</ele>
        <time>2024-01-30T10:16:12.122Z</time>
      </trkpt>
      <trkpt lat="43.78008" lon="5.39512">
        <ele>363.161417</ele>
        <time>2024-01-30T10:16:47.062Z</time>
      </trkpt>
      <trkpt lat="43.78017" lon="5.39575">
        <ele>366.259902</ele>
        <time>2024-01-30T10:17:18.533Z</time>
      </trkpt>
      <trkpt lat="43.78017" lon="5.39591">
        <ele>367.016764</ele>
        <time>2024-01-30T10:17:26.305Z</time>
      </trkpt>
      <trkpt lat="43.78012" lon="5.39693">
        <ele>370.455299</ele>
        <time>2024-01-30T10:18:12.506Z</time>
      </trkpt>
      <trkpt lat="43.78012" lon="5.39766">
        <ele>372.823194</ele>
        <time>2024-01-30T10:18:41.253Z</time>
      </trkpt>
      <trkpt lat="43.78008" lon="5.39793">
        <ele>373.744075</ele>
        <time>2024-01-30T10:18:51.183Z</time>
      </trkpt>
      <trkpt lat="43.78009" lon="5.39803">
        <ele>374.064944</ele>
        <time>2024-01-30T10:18:54.593Z</time>
      </trkpt>
      <trkpt lat="43.78031" lon="5.39843">
        <ele>375.405805</ele>
        <time>2024-01-30T10:19:10.837Z</time>
      </trkpt>
      <trkpt lat="43.78034" lon="5.39869">
        <ele>375.280614</ele>
        <time>2024-01-30T10:19:18.226Z</time>
      </trkpt>
      <trkpt lat="43.78032" lon="5.39886">
        <ele>375.197232</ele>
        <time>2024-01-30T10:19:23.101Z</time>
      </trkpt>
      <trkpt lat="43.77965" lon="5.39996">
        <ele>374.504836</ele>
        <time>2024-01-30T10:19:42.192Z</time>
      </trkpt>
      <trkpt lat="43.77957" lon="5.40022">
        <ele>374.370572</ele>
        <time>2024-01-30T10:19:45.427Z</time>
      </trkpt>
      <trkpt lat="43.77892" lon="5.40242">
        <ele>368.942069</ele>
        <time>2024-01-30T10:20:11.056Z</time>
      </trkpt>
      <trkpt lat="43.77853" lon="5.40421">
        <ele>364.575952</ele>
        <time>2024-01-30T10:20:31.489Z</time>
      </trkpt>
      <trkpt lat="43.7785" lon="5.40434">
        <ele>364.276239</ele>
        <time>2024-01-30T10:20:32.944Z</time>
      </trkpt>
      <trkpt lat="43.77838" lon="5.40487">
        <ele>362.999662</ele>
        <time>2024-01-30T10:20:39.202Z</time>
      </trkpt>
      <trkpt lat="43.778" lon="5.40593">
        <ele>361.444713</ele>
        <time>2024-01-30T10:20:52.799Z</time>
      </trkpt>
      <trkpt lat="43.77783" lon="5.40628">
        <ele>361.03091</ele>
        <time>2024-01-30T10:20:57.714Z</time>
      </trkpt>
      <trkpt lat="43.77696" lon="5.40801">
        <ele>361.930272</ele>
        <time>2024-01-30T10:21:28.221Z</time>
      </trkpt>
      <trkpt lat="43.77687" lon="5.40809">
        <ele>362.276071</ele>
        <time>2024-01-30T10:21:31.545Z</time>
      </trkpt>
      <trkpt lat="43.77689" lon="5.40816">
        <ele>362.440182</ele>
        <time>2024-01-30T10:21:33.547Z</time>
      </trkpt>
      <trkpt lat="43.7774" lon="5.40824">
        <ele>363.995834</ele>
        <time>2024-01-30T10:21:52.947Z</time>
      </trkpt>
      <trkpt lat="43.77828" lon="5.40869">
        <ele>369.110543</ele>
        <time>2024-01-30T10:22:41.741Z</time>
      </trkpt>
      <trkpt lat="43.77872" lon="5.40887">
        <ele>372.611029</ele>
        <time>2024-01-30T10:23:10.655Z</time>
      </trkpt>
      <trkpt lat="43.77929" lon="5.40921">
        <ele>377.328168</ele>
        <time>2024-01-30T10:23:48.022Z</time>
      </trkpt>
      <trkpt lat="43.77957" lon="5.40931">
        <ele>379.571857</ele>
        <time>2024-01-30T10:24:05.347Z</time>
      </trkpt>
      <trkpt lat="43.77973" lon="5.40943">
        <ele>380.860685</ele>
        <time>2024-01-30T10:24:15.354Z</time>
      </trkpt>
      <trkpt lat="43.77978" lon="5.40957">
        <ele>381.685903</ele>
        <time>2024-01-30T10:24:21.835Z</time>
      </trkpt>
      <trkpt lat="43.77977" lon="5.40965">
        <ele>382.10626</ele>
        <time>2024-01-30T10:24:25.004Z</time>
      </trkpt>
      <trkpt lat="43.77967" lon="5.40986">
        <ele>383.463156</ele>
        <time>2024-01-30T10:24:35.200Z</time>
      </trkpt>
      <trkpt lat="43.77966" lon="5.40997">
        <ele>384.006748</ele>
        <time>2024-01-30T10:24:39.408Z</time>
      </trkpt>
      <trkpt lat="43.78113" lon="5.4084">
        <ele>398.295506</ele>
        <time>2024-01-30T10:26:23.005Z</time>
      </trkpt>
      <trkpt lat="43.78139" lon="5.40839">
        <ele>400.46393</ele>
        <time>2024-01-30T10:26:39.227Z</time>
      </trkpt>
      <trkpt lat="43.78177" lon="5.40831">
        <ele>403.691024</ele>
        <time>2024-01-30T10:27:04.243Z</time>
      </trkpt>
      <trkpt lat="43.78299" lon="5.40799">
        <ele>415.039927</ele>
        <time>2024-01-30T10:28:29.719Z</time>
      </trkpt>
      <trkpt lat="43.78397" lon="5.40726">
        <ele>425.484994</ele>
        <time>2024-01-30T10:29:45.938Z</time>
      </trkpt>
      <trkpt lat="43.78414" lon="5.40718">
        <ele>427.055245</ele>
        <time>2024-01-30T10:29:57.519Z</time>
      </trkpt>
      <trkpt lat="43.78485" lon="5.40725">
        <ele>433.152406</ele>
        <time>2024-01-30T10:30:41.276Z</time>
      </trkpt>
      <trkpt lat="43.78519" lon="5.40726">
        <ele>436.14674</ele>
        <time>2024-01-30T10:31:03.295Z</time>
      </trkpt>
      <trkpt lat="43.78529" lon="5.40724">
        <ele>436.948319</ele>
        <time>2024-01-30T10:31:08.822Z</time>
      </trkpt>
      <trkpt lat="43.78568" lon="5.40722">
        <ele>440.316671</ele>
        <time>2024-01-30T10:31:34.618Z</time>
      </trkpt>
      <trkpt lat="43.78617" lon="5.40738">
        <ele>444.14818</ele>
        <time>2024-01-30T10:32:05.690Z</time>
      </trkpt>
      <trkpt lat="43.78685" lon="5.40752">
        <ele>449.41842</ele>
        <time>2024-01-30T10:32:45.134Z</time>
      </trkpt>
      <trkpt lat="43.78702" lon="5.40751">
        <ele>450.694039</ele>
        <time>2024-01-30T10:32:54.877Z</time>
      </trkpt>
      <trkpt lat="43.78782" lon="5.40723">
        <ele>456.937622</ele>
        <time>2024-01-30T10:33:44.161Z</time>
      </trkpt>
      <trkpt lat="43.78816" lon="5.40723">
        <ele>459.410576</ele>
        <time>2024-01-30T10:34:03.310Z</time>
      </trkpt>
      <trkpt lat="43.78843" lon="5.40716">
        <ele>461.453434</ele>
        <time>2024-01-30T10:34:18.884Z</time>
      </trkpt>
      <trkpt lat="43.78855" lon="5.40719">
        <ele>462.371757</ele>
        <time>2024-01-30T10:34:25.815Z</time>
      </trkpt>
      <trkpt lat="43.78994" lon="5.40759">
        <ele>474.516568</ele>
        <time>2024-01-30T10:35:50.724Z</time>
      </trkpt>
      <trkpt lat="43.79038" lon="5.4078">
        <ele>478.836321</ele>
        <time>2024-01-30T10:36:22.540Z</time>
      </trkpt>
      <trkpt lat="43.79078" lon="5.40805">
        <ele>483.006051</ele>
        <time>2024-01-30T10:36:55.901Z</time>
      </trkpt>
      <trkpt lat="43.79116" lon="5.4082">
        <ele>488.029717</ele>
        <time>2024-01-30T10:37:28.649Z</time>
      </trkpt>
      <trkpt lat="43.79131" lon="5.40829">
        <ele>490.239</ele>
        <time>2024-01-30T10:37:42.985Z</time>
      </trkpt>
      <trkpt lat="43.79216" lon="5.40891">
        <ele>503.470436</ele>
        <time>2024-01-30T10:39:13.485Z</time>
      </trkpt>
      <trkpt lat="43.79249" lon="5.40931">
        <ele>509.422558</ele>
        <time>2024-01-30T10:39:55.656Z</time>
      </trkpt>
      <trkpt lat="43.79272" lon="5.40952">
        <ele>512.8289</ele>
        <time>2024-01-30T10:40:20.602Z</time>
      </trkpt>
      <trkpt lat="43.79297" lon="5.4097">
        <ele>516.417176</ele>
        <time>2024-01-30T10:40:46.218Z</time>
      </trkpt>
      <trkpt lat="43.79364" lon="5.40993">
        <ele>525.010744</ele>
        <time>2024-01-30T10:41:43.314Z</time>
      </trkpt>
      <trkpt lat="43.79416" lon="5.41006">
        <ele>531.668741</ele>
        <time>2024-01-30T10:42:23.691Z</time>
      </trkpt>
      <trkpt lat="43.79519" lon="5.41054">
        <ele>544.222961</ele>
        <time>2024-01-30T10:43:45.981Z</time>
      </trkpt>
      <trkpt lat="43.79585" lon="5.41104">
        <ele>553.048631</ele>
        <time>2024-01-30T10:44:48.122Z</time>
      </trkpt>
      <trkpt lat="43.79648" lon="5.41168">
        <ele>563.498758</ele>
        <time>2024-01-30T10:45:57.197Z</time>
      </trkpt>
      <trkpt lat="43.79684" lon="5.41211">
        <ele>569.94583</ele>
        <time>2024-01-30T10:46:41.320Z</time>
      </trkpt>
      <trkpt lat="43.79719" lon="5.41243">
        <ele>575.614484</ele>
        <time>2024-01-30T10:47:18.947Z</time>
      </trkpt>
      <trkpt lat="43.79751" lon="5.41264">
        <ele>580.545398</ele>
        <time>2024-01-30T10:47:50.121Z</time>
      </trkpt>
      <trkpt lat="43.79785" lon="5.41299">
        <ele>586.58798</ele>
        <time>2024-01-30T10:48:28.330Z</time>
      </trkpt>
      <trkpt lat="43.798" lon="5.41325">
        <ele>589.950199</ele>
        <time>2024-01-30T10:48:50.404Z</time>
      </trkpt>
      <trkpt lat="43.79812" lon="5.41338">
        <ele>592.079643</ele>
        <time>2024-01-30T10:49:04.540Z</time>
      </trkpt>
      <trkpt lat="43.79821" lon="5.4134">
        <ele>593.325007</ele>
        <time>2024-01-30T10:49:12.835Z</time>
      </trkpt>
      <trkpt lat="43.7984" lon="5.41337">
        <ele>595.976928</ele>
        <time>2024-01-30T10:49:30.836Z</time>
      </trkpt>
      <trkpt lat="43.7985" lon="5.41339">
        <ele>597.364424</ele>
        <time>2024-01-30T10:49:40.220Z</time>
      </trkpt>
      <trkpt lat="43.79869" lon="5.41351">
        <ele>600.364801</ele>
        <time>2024-01-30T10:50:00.509Z</time>
      </trkpt>
      <trkpt lat="43.79876" lon="5.41366">
        <ele>602.189933</ele>
        <time>2024-01-30T10:50:12.556Z</time>
      </trkpt>
      <trkpt lat="43.79884" lon="5.41372">
        <ele>603.533947</ele>
        <time>2024-01-30T10:50:21.089Z</time>
      </trkpt>
      <trkpt lat="43.79906" lon="5.41389">
        <ele>607.172087</ele>
        <time>2024-01-30T10:50:44.387Z</time>
      </trkpt>
      <trkpt lat="43.7994" lon="5.41408">
        <ele>612.586907</ele>
        <time>2024-01-30T10:51:18.487Z</time>
      </trkpt>
      <trkpt lat="43.79953" lon="5.41424">
        <ele>615.223743</ele>
        <time>2024-01-30T10:51:35.550Z</time>
      </trkpt>
      <trkpt lat="43.79962" lon="5.41429">
        <ele>616.677342</ele>
        <time>2024-01-30T10:51:44.971Z</time>
      </trkpt>
      <trkpt lat="43.79982" lon="5.41432">
        <ele>619.608811</ele>
        <time>2024-01-30T10:52:04.113Z</time>
      </trkpt>
      <trkpt lat="43.80028" lon="5.41431">
        <ele>626.41319</ele>
        <time>2024-01-30T10:52:49.210Z</time>
      </trkpt>
      <trkpt lat="43.80048" lon="5.41426">
        <ele>629.412106</ele>
        <time>2024-01-30T10:53:09.422Z</time>
      </trkpt>
      <trkpt lat="43.80087" lon="5.41425">
        <ele>634.911314</ele>
        <time>2024-01-30T10:53:46.555Z</time>
      </trkpt>
      <trkpt lat="43.80111" lon="5.4142">
        <ele>638.232715</ele>
        <time>2024-01-30T10:54:08.052Z</time>
      </trkpt>
      <trkpt lat="43.80137" lon="5.41419">
        <ele>641.90327</ele>
        <time>2024-01-30T10:54:31.466Z</time>
      </trkpt>
      <trkpt lat="43.80156" lon="5.41421">
        <ele>644.632935</ele>
        <time>2024-01-30T10:54:48.707Z</time>
      </trkpt>
      <trkpt lat="43.80233" lon="5.41441">
        <ele>655.328481</ele>
        <time>2024-01-30T10:56:00.024Z</time>
      </trkpt>
      <trkpt lat="43.80293" lon="5.41463">
        <ele>662.981188</ele>
        <time>2024-01-30T10:56:55.345Z</time>
      </trkpt>
      <trkpt lat="43.80351" lon="5.41484">
        <ele>670.203091</ele>
        <time>2024-01-30T10:57:42.024Z</time>
      </trkpt>
      <trkpt lat="43.80396" lon="5.4151">
        <ele>676.229001</ele>
        <time>2024-01-30T10:58:18.398Z</time>
      </trkpt>
      <trkpt lat="43.80437" lon="5.41511">
        <ele>681.464378</ele>
        <time>2024-01-30T10:58:49.005Z</time>
      </trkpt>
      <trkpt lat="43.80452" lon="5.41518">
        <ele>683.533483</ele>
        <time>2024-01-30T10:59:01.637Z</time>
      </trkpt>
      <trkpt lat="43.80471" lon="5.41532">
        <ele>686.213349</ele>
        <time>2024-01-30T10:59:18.417Z</time>
      </trkpt>
      <trkpt lat="43.80483" lon="5.41536">
        <ele>687.828889</ele>
        <time>2024-01-30T10:59:28.930Z</time>
      </trkpt>
      <trkpt lat="43.80498" lon="5.4153">
        <ele>689.794954</ele>
        <time>2024-01-30T10:59:41.963Z</time>
      </trkpt>
      <trkpt lat="43.80525" lon="5.41502">
        <ele>694.109252</ele>
        <time>2024-01-30T11:00:12.129Z</time>
      </trkpt>
      <trkpt lat="43.80571" lon="5.41482">
        <ele>701.168735</ele>
        <time>2024-01-30T11:00:58.807Z</time>
      </trkpt>
      <trkpt lat="43.80585" lon="5.41478">
        <ele>703.848936</ele>
        <time>2024-01-30T11:01:13.452Z</time>
      </trkpt>
      <trkpt lat="43.8063" lon="5.41477">
        <ele>712.537836</ele>
        <time>2024-01-30T11:02:04.034Z</time>
      </trkpt>
      <trkpt lat="43.80641" lon="5.41473">
        <ele>714.692989</ele>
        <time>2024-01-30T11:02:17.473Z</time>
      </trkpt>
      <trkpt lat="43.8067" lon="5.41449">
        <ele>721.136898</ele>
        <time>2024-01-30T11:02:59.205Z</time>
      </trkpt>
      <trkpt lat="43.80677" lon="5.41434">
        <ele>723.578681</ele>
        <time>2024-01-30T11:03:15.562Z</time>
      </trkpt>
      <trkpt lat="43.80685" lon="5.41402">
        <ele>728.273324</ele>
        <time>2024-01-30T11:03:47.491Z</time>
      </trkpt>
      <trkpt lat="43.80697" lon="5.41389">
        <ele>731.068681</ele>
        <time>2024-01-30T11:04:06.551Z</time>
      </trkpt>
      <trkpt lat="43.80705" lon="5.41385">
        <ele>732.67779</ele>
        <time>2024-01-30T11:04:17.661Z</time>
      </trkpt>
      <trkpt lat="43.8073" lon="5.41384">
        <ele>737.915566</ele>
        <time>2024-01-30T11:04:50.797Z</time>
      </trkpt>
      <trkpt lat="43.80779" lon="5.41405">
        <ele>748.585763</ele>
        <time>2024-01-30T11:05:56.732Z</time>
      </trkpt>
      <trkpt lat="43.8082" lon="5.41429">
        <ele>757.935212</ele>
        <time>2024-01-30T11:06:53.358Z</time>
      </trkpt>
      <trkpt lat="43.80854" lon="5.41436">
        <ele>765.182269</ele>
        <time>2024-01-30T11:07:36.912Z</time>
      </trkpt>
      <trkpt lat="43.80905" lon="5.41456">
        <ele>775.30722</ele>
        <time>2024-01-30T11:08:40.299Z</time>
      </trkpt>
      <trkpt lat="43.80926" lon="5.41468">
        <ele>779.433085</ele>
        <time>2024-01-30T11:09:06.645Z</time>
      </trkpt>
      <trkpt lat="43.80988" lon="5.41523">
        <ele>792.728107</ele>
        <time>2024-01-30T11:10:26.823Z</time>
      </trkpt>
      <trkpt lat="43.81004" lon="5.41525">
        <ele>795.593551</ele>
        <time>2024-01-30T11:10:43.888Z</time>
      </trkpt>
      <trkpt lat="43.81011" lon="5.41529">
        <ele>797.019419</ele>
        <time>2024-01-30T11:10:52.347Z</time>
      </trkpt>
      <trkpt lat="43.81031" lon="5.41545">
        <ele>801.154348</ele>
        <time>2024-01-30T11:11:17.006Z</time>
      </trkpt>
      <trkpt lat="43.81052" lon="5.41557">
        <ele>804.40628</ele>
        <time>2024-01-30T11:11:41.863Z</time>
      </trkpt>
      <trkpt lat="43.8109" lon="5.41563">
        <ele>809.037324</ele>
        <time>2024-01-30T11:12:23.026Z</time>
      </trkpt>
      <trkpt lat="43.81097" lon="5.41566">
        <ele>809.949328</ele>
        <time>2024-01-30T11:12:31.142Z</time>
      </trkpt>
      <trkpt lat="43.81103" lon="5.41572">
        <ele>810.85687</ele>
        <time>2024-01-30T11:12:39.042Z</time>
      </trkpt>
      <trkpt lat="43.81107" lon="5.41579">
        <ele>811.636713</ele>
        <time>2024-01-30T11:12:45.136Z</time>
      </trkpt>
      <trkpt lat="43.81109" lon="5.4159">
        <ele>812.626508</ele>
        <time>2024-01-30T11:12:52.041Z</time>
      </trkpt>
      <trkpt lat="43.81115" lon="5.41642">
        <ele>817.260448</ele>
        <time>2024-01-30T11:13:21.886Z</time>
      </trkpt>
      <trkpt lat="43.81114" lon="5.41682">
        <ele>820.834259</ele>
        <time>2024-01-30T11:13:41.198Z</time>
      </trkpt>
      <trkpt lat="43.81121" lon="5.41737">
        <ele>824.652197</ele>
        <time>2024-01-30T11:14:02.386Z</time>
      </trkpt>
      <trkpt lat="43.81126" lon="5.41764">
        <ele>825.039658</ele>
        <time>2024-01-30T11:14:11.969Z</time>
      </trkpt>
      <trkpt lat="43.81132" lon="5.41767">
        <ele>825.155634</ele>
        <time>2024-01-30T11:14:14.806Z</time>
      </trkpt>
      <trkpt lat="43.81135" lon="5.41764">
        <ele>825.220372</ele>
        <time>2024-01-30T11:14:15.997Z</time>
      </trkpt>
      <trkpt lat="43.81138" lon="5.41726">
        <ele>825.751409</ele>
        <time>2024-01-30T11:14:26.342Z</time>
      </trkpt>
      <trkpt lat="43.81142" lon="5.41704">
        <ele>826.056074</ele>
        <time>2024-01-30T11:14:30.947Z</time>
      </trkpt>
      <trkpt lat="43.81159" lon="5.41671">
        <ele>826.613004</ele>
        <time>2024-01-30T11:14:38.669Z</time>
      </trkpt>
      <trkpt lat="43.81163" lon="5.41656">
        <ele>826.82275</ele>
        <time>2024-01-30T11:14:40.879Z</time>
      </trkpt>
      <trkpt lat="43.81175" lon="5.41594">
        <ele>827.714142</ele>
        <time>2024-01-30T11:14:49.747Z</time>
      </trkpt>
      <trkpt lat="43.81176" lon="5.41568">
        <ele>828.140849</ele>
        <time>2024-01-30T11:14:52.892Z</time>
      </trkpt>
      <trkpt lat="43.81173" lon="5.41548">
        <ele>828.537556</ele>
        <time>2024-01-30T11:14:55.388Z</time>
      </trkpt>
      <trkpt lat="43.81153" lon="5.41483">
        <ele>829.896158</ele>
        <time>2024-01-30T11:15:06.290Z</time>
      </trkpt>
      <trkpt lat="43.81117" lon="5.41408">
        <ele>831.604164</ele>
        <time>2024-01-30T11:15:31.521Z</time>
      </trkpt>
      <trkpt lat="43.81112" lon="5.41392">
        <ele>831.941872</ele>
        <time>2024-01-30T11:15:37.863Z</time>
      </trkpt>
      <trkpt lat="43.81111" lon="5.41369">
        <ele>832.390368</ele>
        <time>2024-01-30T11:15:47.134Z</time>
      </trkpt>
      <trkpt lat="43.81114" lon="5.41326">
        <ele>833.888777</ele>
        <time>2024-01-30T11:16:06.040Z</time>
      </trkpt>
      <trkpt lat="43.81114" lon="5.41296">
        <ele>835.147705</ele>
        <time>2024-01-30T11:16:20.172Z</time>
      </trkpt>
      <trkpt lat="43.81097" lon="5.41196">
        <ele>839.427965</ele>
        <time>2024-01-30T11:17:04.642Z</time>
      </trkpt>
      <trkpt lat="43.81099" lon="5.41185">
        <ele>839.890944</ele>
        <time>2024-01-30T11:17:08.890Z</time>
      </trkpt>
      <trkpt lat="43.81095" lon="5.41182">
        <ele>840.131493</ele>
        <time>2024-01-30T11:17:10.477Z</time>
      </trkpt>
      <trkpt lat="43.8111" lon="5.41101">
        <ele>842.664048</ele>
        <time>2024-01-30T11:17:40.830Z</time>
      </trkpt>
      <trkpt lat="43.81114" lon="5.41099">
        <ele>842.468786</ele>
        <time>2024-01-30T11:17:42.674Z</time>
      </trkpt>
      <trkpt lat="43.81168" lon="5.41123">
        <ele>839.961257</ele>
        <time>2024-01-30T11:17:59.803Z</time>
      </trkpt>
      <trkpt lat="43.81187" lon="5.41127">
        <ele>839.125316</ele>
        <time>2024-01-30T11:18:04.753Z</time>
      </trkpt>
      <trkpt lat="43.81189" lon="5.41122">
        <ele>838.944586</ele>
        <time>2024-01-30T11:18:05.724Z</time>
      </trkpt>
      <trkpt lat="43.81171" lon="5.41082">
        <ele>837.471807</ele>
        <time>2024-01-30T11:18:13.653Z</time>
      </trkpt>
      <trkpt lat="43.81173" lon="5.41079">
        <ele>837.325449</ele>
        <time>2024-01-30T11:18:14.385Z</time>
      </trkpt>
      <trkpt lat="43.81202" lon="5.41096">
        <ele>835.936518</ele>
        <time>2024-01-30T11:18:21.316Z</time>
      </trkpt>
      <trkpt lat="43.81248" lon="5.41113">
        <ele>830.113035</ele>
        <time>2024-01-30T11:18:31.201Z</time>
      </trkpt>
      <trkpt lat="43.81249" lon="5.41108">
        <ele>829.530085</ele>
        <time>2024-01-30T11:18:31.894Z</time>
      </trkpt>
      <trkpt lat="43.81229" lon="5.41078">
        <ele>824.617237</ele>
        <time>2024-01-30T11:18:37.849Z</time>
      </trkpt>
      <trkpt lat="43.81231" lon="5.41074">
        <ele>824.029113</ele>
        <time>2024-01-30T11:18:38.545Z</time>
      </trkpt>
      <trkpt lat="43.81244" lon="5.41082">
        <ele>821.651519</ele>
        <time>2024-01-30T11:18:41.362Z</time>
      </trkpt>
      <trkpt lat="43.81263" lon="5.41083">
        <ele>818.517215</ele>
        <time>2024-01-30T11:18:45.092Z</time>
      </trkpt>
      <trkpt lat="43.81277" lon="5.41089">
        <ele>816.134419</ele>
        <time>2024-01-30T11:18:47.898Z</time>
      </trkpt>
      <trkpt lat="43.81277" lon="5.41081">
        <ele>815.23346</ele>
        <time>2024-01-30T11:18:48.945Z</time>
      </trkpt>
      <trkpt lat="43.81265" lon="5.41065">
        <ele>812.333355</ele>
        <time>2024-01-30T11:18:52.365Z</time>
      </trkpt>
      <trkpt lat="43.81266" lon="5.41058">
        <ele>811.465867</ele>
        <time>2024-01-30T11:18:53.375Z</time>
      </trkpt>
      <trkpt lat="43.81288" lon="5.41069">
        <ele>807.422555</ele>
        <time>2024-01-30T11:18:58.113Z</time>
      </trkpt>
      <trkpt lat="43.81298" lon="5.4107">
        <ele>805.86506</ele>
        <time>2024-01-30T11:18:59.927Z</time>
      </trkpt>
      <trkpt lat="43.81356" lon="5.41054">
        <ele>793.294613</ele>
        <time>2024-01-30T11:19:11.403Z</time>
      </trkpt>
      <trkpt lat="43.81376" lon="5.41039">
        <ele>788.309095</ele>
        <time>2024-01-30T11:19:15.865Z</time>
      </trkpt>
      <trkpt lat="43.81402" lon="5.41034">
        <ele>782.661359</ele>
        <time>2024-01-30T11:19:20.925Z</time>
      </trkpt>
      <trkpt lat="43.81437" lon="5.4102">
        <ele>774.716943</ele>
        <time>2024-01-30T11:19:28.017Z</time>
      </trkpt>
      <trkpt lat="43.81447" lon="5.4102">
        <ele>772.527938</ele>
        <time>2024-01-30T11:19:29.971Z</time>
      </trkpt>
      <trkpt lat="43.81475" lon="5.40995">
        <ele>765.48056</ele>
        <time>2024-01-30T11:19:36.337Z</time>
      </trkpt>
      <trkpt lat="43.81488" lon="5.4099">
        <ele>762.780533</ele>
        <time>2024-01-30T11:19:39.085Z</time>
      </trkpt>
      <trkpt lat="43.81496" lon="5.40982">
        <ele>760.826716</ele>
        <time>2024-01-30T11:19:41.083Z</time>
      </trkpt>
      <trkpt lat="43.81558" lon="5.40939">
        <ele>747.727484</ele>
        <time>2024-01-30T11:19:54.505Z</time>
      </trkpt>
      <trkpt lat="43.81645" lon="5.40874">
        <ele>730.071684</ele>
        <time>2024-01-30T11:20:14.226Z</time>
      </trkpt>
      <trkpt lat="43.81701" lon="5.40844">
        <ele>723.400163</ele>
        <time>2024-01-30T11:20:26.386Z</time>
      </trkpt>
      <trkpt lat="43.81735" lon="5.40811">
        <ele>718.685124</ele>
        <time>2024-01-30T11:20:35.260Z</time>
      </trkpt>
      <trkpt lat="43.81769" lon="5.40781">
        <ele>714.144039</ele>
        <time>2024-01-30T11:20:44.044Z</time>
      </trkpt>
      <trkpt lat="43.81781" lon="5.40758">
        <ele>711.844579</ele>
        <time>2024-01-30T11:20:48.666Z</time>
      </trkpt>
      <trkpt lat="43.81788" lon="5.40738">
        <ele>711.125145</ele>
        <time>2024-01-30T11:20:52.380Z</time>
      </trkpt>
      <trkpt lat="43.81791" lon="5.40735">
        <ele>710.988105</ele>
        <time>2024-01-30T11:20:53.306Z</time>
      </trkpt>
      <trkpt lat="43.81809" lon="5.40735">
        <ele>710.380445</ele>
        <time>2024-01-30T11:20:57.716Z</time>
      </trkpt>
      <trkpt lat="43.81837" lon="5.40721">
        <ele>709.343407</ele>
        <time>2024-01-30T11:21:05.541Z</time>
      </trkpt>
      <trkpt lat="43.81845" lon="5.40721">
        <ele>709.076025</ele>
        <time>2024-01-30T11:21:07.656Z</time>
      </trkpt>
      <trkpt lat="43.81871" lon="5.4073">
        <ele>708.132001</ele>
        <time>2024-01-30T11:21:15.098Z</time>
      </trkpt>
      <trkpt lat="43.81881" lon="5.40729">
        <ele>707.7875</ele>
        <time>2024-01-30T11:21:17.985Z</time>
      </trkpt>
      <trkpt lat="43.81905" lon="5.40719">
        <ele>706.928355</ele>
        <time>2024-01-30T11:21:25.031Z</time>
      </trkpt>
      <trkpt lat="43.81929" lon="5.40738">
        <ele>705.955536</ele>
        <time>2024-01-30T11:21:33.018Z</time>
      </trkpt>
      <trkpt lat="43.81939" lon="5.40752">
        <ele>705.460718</ele>
        <time>2024-01-30T11:21:36.894Z</time>
      </trkpt>
      <trkpt lat="43.81952" lon="5.40775">
        <ele>703.708786</ele>
        <time>2024-01-30T11:21:42.362Z</time>
      </trkpt>
      <trkpt lat="43.8198" lon="5.40862">
        <ele>697.566862</ele>
        <time>2024-01-30T11:21:58.396Z</time>
      </trkpt>
      <trkpt lat="43.81996" lon="5.40899">
        <ele>694.78795</ele>
        <time>2024-01-30T11:22:05.190Z</time>
      </trkpt>
      <trkpt lat="43.8202" lon="5.40939">
        <ele>691.421918</ele>
        <time>2024-01-30T11:22:13.075Z</time>
      </trkpt>
      <trkpt lat="43.82049" lon="5.40978">
        <ele>686.449559</ele>
        <time>2024-01-30T11:22:21.081Z</time>
      </trkpt>
      <trkpt lat="43.82056" lon="5.40989">
        <ele>684.488814</ele>
        <time>2024-01-30T11:22:22.395Z</time>
      </trkpt>
      <trkpt lat="43.82202" lon="5.41119">
        <ele>655.62562</ele>
        <time>2024-01-30T11:22:42.880Z</time>
      </trkpt>
      <trkpt lat="43.82216" lon="5.41128">
        <ele>654.375117</ele>
        <time>2024-01-30T11:22:44.714Z</time>
      </trkpt>
      <trkpt lat="43.82264" lon="5.41147">
        <ele>650.142625</ele>
        <time>2024-01-30T11:22:51.188Z</time>
      </trkpt>
      <trkpt lat="43.82345" lon="5.41152">
        <ele>643.419992</ele>
        <time>2024-01-30T11:23:02.881Z</time>
      </trkpt>
      <trkpt lat="43.82374" lon="5.41148">
        <ele>641.625365</ele>
        <time>2024-01-30T11:23:07.957Z</time>
      </trkpt>
      <trkpt lat="43.82413" lon="5.41141">
        <ele>639.950437</ele>
        <time>2024-01-30T11:23:14.916Z</time>
      </trkpt>
      <trkpt lat="43.82435" lon="5.41128">
        <ele>638.929979</ele>
        <time>2024-01-30T11:23:18.893Z</time>
      </trkpt>
      <trkpt lat="43.82455" lon="5.4111">
        <ele>637.907498</ele>
        <time>2024-01-30T11:23:22.571Z</time>
      </trkpt>
      <trkpt lat="43.82511" lon="5.41042">
        <ele>634.735653</ele>
        <time>2024-01-30T11:23:32.972Z</time>
      </trkpt>
      <trkpt lat="43.82513" lon="5.4104">
        <ele>634.637841</ele>
        <time>2024-01-30T11:23:33.250Z</time>
      </trkpt>
      <trkpt lat="43.82565" lon="5.4102">
        <ele>628.783141</ele>
        <time>2024-01-30T11:23:40.172Z</time>
      </trkpt>
      <trkpt lat="43.82572" lon="5.41014">
        <ele>627.857925</ele>
        <time>2024-01-30T11:23:41.240Z</time>
      </trkpt>
      <trkpt lat="43.82585" lon="5.40994">
        <ele>625.764938</ele>
        <time>2024-01-30T11:23:43.648Z</time>
      </trkpt>
      <trkpt lat="43.82608" lon="5.40934">
        <ele>620.462852</ele>
        <time>2024-01-30T11:23:49.712Z</time>
      </trkpt>
      <trkpt lat="43.82613" lon="5.40911">
        <ele>618.546782</ele>
        <time>2024-01-30T11:23:51.902Z</time>
      </trkpt>
      <trkpt lat="43.82618" lon="5.40865">
        <ele>614.918559</ele>
        <time>2024-01-30T11:23:56.005Z</time>
      </trkpt>
      <trkpt lat="43.82618" lon="5.40845">
        <ele>613.177245</ele>
        <time>2024-01-30T11:23:57.812Z</time>
      </trkpt>
      <trkpt lat="43.82611" lon="5.40785">
        <ele>608.002581</ele>
        <time>2024-01-30T11:24:03.174Z</time>
      </trkpt>
      <trkpt lat="43.82611" lon="5.40762">
        <ele>605.985942</ele>
        <time>2024-01-30T11:24:05.278Z</time>
      </trkpt>
      <trkpt lat="43.82615" lon="5.40686">
        <ele>599.481995</ele>
        <time>2024-01-30T11:24:12.072Z</time>
      </trkpt>
      <trkpt lat="43.82624" lon="5.40592">
        <ele>591.745481</ele>
        <time>2024-01-30T11:24:20.639Z</time>
      </trkpt>
      <trkpt lat="43.82644" lon="5.40534">
        <ele>587.149931</ele>
        <time>2024-01-30T11:24:26.491Z</time>
      </trkpt>
      <trkpt lat="43.82652" lon="5.40521">
        <ele>585.989664</ele>
        <time>2024-01-30T11:24:27.977Z</time>
      </trkpt>
      <trkpt lat="43.82674" lon="5.40502">
        <ele>583.369865</ele>
        <time>2024-01-30T11:24:31.333Z</time>
      </trkpt>
      <trkpt lat="43.82718" lon="5.40453">
        <ele>577.772037</ele>
        <time>2024-01-30T11:24:38.584Z</time>
      </trkpt>
      <trkpt lat="43.82759" lon="5.40421">
        <ele>573.279903</ele>
        <time>2024-01-30T11:24:44.770Z</time>
      </trkpt>
      <trkpt lat="43.82775" lon="5.40396">
        <ele>571.022522</ele>
        <time>2024-01-30T11:24:47.939Z</time>
      </trkpt>
      <trkpt lat="43.82785" lon="5.40386">
        <ele>569.882275</ele>
        <time>2024-01-30T11:24:49.530Z</time>
      </trkpt>
      <trkpt lat="43.82787" lon="5.40364">
        <ele>568.448754</ele>
        <time>2024-01-30T11:24:51.483Z</time>
      </trkpt>
      <trkpt lat="43.82794" lon="5.40347">
        <ele>567.106474</ele>
        <time>2024-01-30T11:24:53.361Z</time>
      </trkpt>
      <trkpt lat="43.82841" lon="5.40316">
        <ele>562.3045</ele>
        <time>2024-01-30T11:24:59.910Z</time>
      </trkpt>
      <trkpt lat="43.82839" lon="5.40304">
        <ele>561.510673</ele>
        <time>2024-01-30T11:25:05.857Z</time>
      </trkpt>
      <trkpt lat="43.82847" lon="5.40289">
        <ele>560.232314</ele>
        <time>2024-01-30T11:25:15.403Z</time>
      </trkpt>
      <trkpt lat="43.82853" lon="5.4027">
        <ele>558.818492</ele>
        <time>2024-01-30T11:25:25.515Z</time>
      </trkpt>
      <trkpt lat="43.82839" lon="5.40283">
        <ele>556.917707</ele>
        <time>2024-01-30T11:25:27.532Z</time>
      </trkpt>
      <trkpt lat="43.8284" lon="5.40258">
        <ele>554.897896</ele>
        <time>2024-01-30T11:25:31.247Z</time>
      </trkpt>
      <trkpt lat="43.82854" lon="5.40221">
        <ele>551.418227</ele>
        <time>2024-01-30T11:25:37.722Z</time>
      </trkpt>
      <trkpt lat="43.82871" lon="5.40197">
        <ele>548.618645</ele>
        <time>2024-01-30T11:25:42.958Z</time>
      </trkpt>
      <trkpt lat="43.82881" lon="5.40189">
        <ele>547.287352</ele>
        <time>2024-01-30T11:25:45.348Z</time>
      </trkpt>
      <trkpt lat="43.82916" lon="5.40139">
        <ele>541.586204</ele>
        <time>2024-01-30T11:25:55.762Z</time>
      </trkpt>
      <trkpt lat="43.82921" lon="5.40107">
        <ele>538.891828</ele>
        <time>2024-01-30T11:26:00.668Z</time>
      </trkpt>
      <trkpt lat="43.82924" lon="5.40063">
        <ele>535.176836</ele>
        <time>2024-01-30T11:26:07.266Z</time>
      </trkpt>
      <trkpt lat="43.82933" lon="5.40041">
        <ele>533.030776</ele>
        <time>2024-01-30T11:26:11.085Z</time>
      </trkpt>
      <trkpt lat="43.82935" lon="5.40026">
        <ele>531.778858</ele>
        <time>2024-01-30T11:26:13.323Z</time>
      </trkpt>
      <trkpt lat="43.82941" lon="5.40021">
        <ele>530.967418</ele>
        <time>2024-01-30T11:26:14.769Z</time>
      </trkpt>
      <trkpt lat="43.82968" lon="5.39961">
        <ele>524.979285</ele>
        <time>2024-01-30T11:26:25.471Z</time>
      </trkpt>
      <trkpt lat="43.82978" lon="5.39944">
        <ele>523.123278</ele>
        <time>2024-01-30T11:26:28.780Z</time>
      </trkpt>
      <trkpt lat="43.82999" lon="5.39922">
        <ele>520.036639</ele>
        <time>2024-01-30T11:26:34.285Z</time>
      </trkpt>
      <trkpt lat="43.8307" lon="5.39864">
        <ele>512.059345</ele>
        <time>2024-01-30T11:26:51.710Z</time>
      </trkpt>
      <trkpt lat="43.83103" lon="5.39845">
        <ele>508.853447</ele>
        <time>2024-01-30T11:26:59.528Z</time>
      </trkpt>
      <trkpt lat="43.83136" lon="5.39814">
        <ele>505.217089</ele>
        <time>2024-01-30T11:27:08.573Z</time>
      </trkpt>
      <trkpt lat="43.83169" lon="5.39801">
        <ele>502.121637</ele>
        <time>2024-01-30T11:27:16.351Z</time>
      </trkpt>
      <trkpt lat="43.83177" lon="5.39802">
        <ele>501.425548</ele>
        <time>2024-01-30T11:27:18.086Z</time>
      </trkpt>
      <trkpt lat="43.83219" lon="5.39848">
        <ele>497.765136</ele>
        <time>2024-01-30T11:27:30.310Z</time>
      </trkpt>
      <trkpt lat="43.83236" lon="5.39895">
        <ele>495.186747</ele>
        <time>2024-01-30T11:27:39.012Z</time>
      </trkpt>
      <trkpt lat="43.83245" lon="5.39909">
        <ele>494.2396</ele>
        <time>2024-01-30T11:27:42.215Z</time>
      </trkpt>
      <trkpt lat="43.83254" lon="5.39907">
        <ele>493.639819</ele>
        <time>2024-01-30T11:27:44.292Z</time>
      </trkpt>
      <trkpt lat="43.83255" lon="5.39896">
        <ele>493.091519</ele>
        <time>2024-01-30T11:27:46.205Z</time>
      </trkpt>
      <trkpt lat="43.83223" lon="5.39771">
        <ele>487.470625</ele>
        <time>2024-01-30T11:28:08.304Z</time>
      </trkpt>
      <trkpt lat="43.83198" lon="5.39744">
        <ele>486.026985</ele>
        <time>2024-01-30T11:28:15.587Z</time>
      </trkpt>
      <trkpt lat="43.83193" lon="5.39724">
        <ele>485.351806</ele>
        <time>2024-01-30T11:28:19.057Z</time>
      </trkpt>
      <trkpt lat="43.832" lon="5.39687">
        <ele>484.12212</ele>
        <time>2024-01-30T11:28:25.586Z</time>
      </trkpt>
      <trkpt lat="43.83204" lon="5.39643">
        <ele>482.67553</ele>
        <time>2024-01-30T11:28:33.790Z</time>
      </trkpt>
      <trkpt lat="43.83211" lon="5.39639">
        <ele>482.349483</ele>
        <time>2024-01-30T11:28:35.680Z</time>
      </trkpt>
      <trkpt lat="43.83235" lon="5.39639">
        <ele>481.258574</ele>
        <time>2024-01-30T11:28:42.395Z</time>
      </trkpt>
      <trkpt lat="43.83237" lon="5.39662">
        <ele>480.984298</ele>
        <time>2024-01-30T11:28:47.334Z</time>
      </trkpt>
      <trkpt lat="43.83232" lon="5.39697">
        <ele>480.846584</ele>
        <time>2024-01-30T11:28:55.280Z</time>
      </trkpt>
      <trkpt lat="43.83237" lon="5.39755">
        <ele>480.621639</ele>
        <time>2024-01-30T11:29:08.432Z</time>
      </trkpt>
      <trkpt lat="43.83232" lon="5.39772">
        <ele>480.552912</ele>
        <time>2024-01-30T11:29:12.545Z</time>
      </trkpt>
      <trkpt lat="43.8324" lon="5.39808">
        <ele>480.408629</ele>
        <time>2024-01-30T11:29:20.544Z</time>
      </trkpt>
      <trkpt lat="43.83245" lon="5.39823">
        <ele>480.345499</ele>
        <time>2024-01-30T11:29:23.986Z</time>
      </trkpt>
      <trkpt lat="43.83265" lon="5.39856">
        <ele>480.182436</ele>
        <time>2024-01-30T11:29:33.528Z</time>
      </trkpt>
      <trkpt lat="43.83245" lon="5.39823">
        <ele>480.180687</ele>
        <time>2024-01-30T11:29:43.746Z</time>
      </trkpt>
      <trkpt lat="43.8324" lon="5.39808">
        <ele>480.255312</ele>
        <time>2024-01-30T11:29:48.220Z</time>
      </trkpt>
      <trkpt lat="43.83232" lon="5.39772">
        <ele>480.425863</ele>
        <time>2024-01-30T11:29:58.689Z</time>
      </trkpt>
      <trkpt lat="43.83237" lon="5.39755">
        <ele>480.507103</ele>
        <time>2024-01-30T11:30:02.994Z</time>
      </trkpt>
      <trkpt lat="43.83232" lon="5.39697">
        <ele>480.773003</ele>
        <time>2024-01-30T11:30:17.707Z</time>
      </trkpt>
      <trkpt lat="43.83237" lon="5.39662">
        <ele>480.93579</ele>
        <time>2024-01-30T11:30:26.682Z</time>
      </trkpt>
      <trkpt lat="43.83235" lon="5.39639">
        <ele>481.038025</ele>
        <time>2024-01-30T11:30:31.980Z</time>
      </trkpt>
      <trkpt lat="43.83211" lon="5.39639">
        <ele>481.188909</ele>
        <time>2024-01-30T11:30:40.500Z</time>
      </trkpt>
      <trkpt lat="43.83204" lon="5.39643">
        <ele>481.245088</ele>
        <time>2024-01-30T11:30:43.158Z</time>
      </trkpt>
      <trkpt lat="43.83198" lon="5.39622">
        <ele>481.427455</ele>
        <time>2024-01-30T11:30:49.310Z</time>
      </trkpt>
      <trkpt lat="43.83191" lon="5.39606">
        <ele>481.576026</ele>
        <time>2024-01-30T11:30:54.072Z</time>
      </trkpt>
      <trkpt lat="43.83166" lon="5.39571">
        <ele>481.972068</ele>
        <time>2024-01-30T11:31:08.131Z</time>
      </trkpt>
      <trkpt lat="43.83121" lon="5.39534">
        <ele>482.545539</ele>
        <time>2024-01-30T11:31:30.877Z</time>
      </trkpt>
      <trkpt lat="43.83089" lon="5.39517">
        <ele>482.918285</ele>
        <time>2024-01-30T11:31:45.163Z</time>
      </trkpt>
      <trkpt lat="43.83" lon="5.3942">
        <ele>481.254123</ele>
        <time>2024-01-30T11:32:18.466Z</time>
      </trkpt>
      <trkpt lat="43.82968" lon="5.39355">
        <ele>480.00719</ele>
        <time>2024-01-30T11:32:32.949Z</time>
      </trkpt>
      <trkpt lat="43.82903" lon="5.39269">
        <ele>477.305138</ele>
        <time>2024-01-30T11:32:55.046Z</time>
      </trkpt>
      <trkpt lat="43.82829" lon="5.39155">
        <ele>473.406457</ele>
        <time>2024-01-30T11:33:23.560Z</time>
      </trkpt>
      <trkpt lat="43.82825" lon="5.39133">
        <ele>472.821706</ele>
        <time>2024-01-30T11:33:27.922Z</time>
      </trkpt>
      <trkpt lat="43.82819" lon="5.39123">
        <ele>472.502531</ele>
        <time>2024-01-30T11:33:30.408Z</time>
      </trkpt>
      <trkpt lat="43.82802" lon="5.39108">
        <ele>471.827359</ele>
        <time>2024-01-30T11:33:35.628Z</time>
      </trkpt>
      <trkpt lat="43.82786" lon="5.39104">
        <ele>471.302159</ele>
        <time>2024-01-30T11:33:39.531Z</time>
      </trkpt>
      <trkpt lat="43.82768" lon="5.39095">
        <ele>470.655219</ele>
        <time>2024-01-30T11:33:44.403Z</time>
      </trkpt>
      <trkpt lat="43.82766" lon="5.39094">
        <ele>470.587926</ele>
        <time>2024-01-30T11:33:44.908Z</time>
      </trkpt>
      <trkpt lat="43.8271" lon="5.39104">
        <ele>468.675058</ele>
        <time>2024-01-30T11:33:59.220Z</time>
      </trkpt>
      <trkpt lat="43.82664" lon="5.39085">
        <ele>467.080701</ele>
        <time>2024-01-30T11:34:11.832Z</time>
      </trkpt>
      <trkpt lat="43.82629" lon="5.39076">
        <ele>465.452348</ele>
        <time>2024-01-30T11:34:21.322Z</time>
      </trkpt>
      <trkpt lat="43.82603" lon="5.39079">
        <ele>464.177715</ele>
        <time>2024-01-30T11:34:28.073Z</time>
      </trkpt>
      <trkpt lat="43.82536" lon="5.39069">
        <ele>460.86648</ele>
        <time>2024-01-30T11:34:44.487Z</time>
      </trkpt>
      <trkpt lat="43.8252" lon="5.39048">
        <ele>459.795297</ele>
        <time>2024-01-30T11:34:49.467Z</time>
      </trkpt>
      <trkpt lat="43.82459" lon="5.38995">
        <ele>456.648983</ele>
        <time>2024-01-30T11:35:05.794Z</time>
      </trkpt>
      <trkpt lat="43.8244" lon="5.38971">
        <ele>455.659182</ele>
        <time>2024-01-30T11:35:11.755Z</time>
      </trkpt>
      <trkpt lat="43.82426" lon="5.38937">
        <ele>454.568123</ele>
        <time>2024-01-30T11:35:18.440Z</time>
      </trkpt>
      <trkpt lat="43.82414" lon="5.38917">
        <ele>453.849118</ele>
        <time>2024-01-30T11:35:23.354Z</time>
      </trkpt>
      <trkpt lat="43.82401" lon="5.38905">
        <ele>453.22649</ele>
        <time>2024-01-30T11:35:28.088Z</time>
      </trkpt>
      <trkpt lat="43.82389" lon="5.38898">
        <ele>452.72691</ele>
        <time>2024-01-30T11:35:31.426Z</time>
      </trkpt>
      <trkpt lat="43.82371" lon="5.38893">
        <ele>452.005116</ele>
        <time>2024-01-30T11:35:37.551Z</time>
      </trkpt>
      <trkpt lat="43.82361" lon="5.38882">
        <ele>451.506443</ele>
        <time>2024-01-30T11:35:40.966Z</time>
      </trkpt>
      <trkpt lat="43.82321" lon="5.38861">
        <ele>451.048124</ele>
        <time>2024-01-30T11:35:53.215Z</time>
      </trkpt>
      <trkpt lat="43.82291" lon="5.38856">
        <ele>451.003296</ele>
        <time>2024-01-30T11:36:02.688Z</time>
      </trkpt>
      <trkpt lat="43.82276" lon="5.38862">
        <ele>450.980778</ele>
        <time>2024-01-30T11:36:08.795Z</time>
      </trkpt>
      <trkpt lat="43.82267" lon="5.38862">
        <ele>450.966611</ele>
        <time>2024-01-30T11:36:13.924Z</time>
      </trkpt>
      <trkpt lat="43.82257" lon="5.38837">
        <ele>450.935724</ele>
        <time>2024-01-30T11:36:21.826Z</time>
      </trkpt>
      <trkpt lat="43.82247" lon="5.38819">
        <ele>450.911558</ele>
        <time>2024-01-30T11:36:30.698Z</time>
      </trkpt>
      <trkpt lat="43.82217" lon="5.38718">
        <ele>449.106845</ele>
        <time>2024-01-30T11:36:54.716Z</time>
      </trkpt>
      <trkpt lat="43.82209" lon="5.38703">
        <ele>448.095187</ele>
        <time>2024-01-30T11:36:57.987Z</time>
      </trkpt>
      <trkpt lat="43.82177" lon="5.38624">
        <ele>443.289208</ele>
        <time>2024-01-30T11:37:12.196Z</time>
      </trkpt>
      <trkpt lat="43.82172" lon="5.38602">
        <ele>442.067067</ele>
        <time>2024-01-30T11:37:15.732Z</time>
      </trkpt>
      <trkpt lat="43.82173" lon="5.38564">
        <ele>440.039069</ele>
        <time>2024-01-30T11:37:21.677Z</time>
      </trkpt>
      <trkpt lat="43.8218" lon="5.38519">
        <ele>437.609568</ele>
        <time>2024-01-30T11:37:28.812Z</time>
      </trkpt>
      <trkpt lat="43.82184" lon="5.38515">
        <ele>437.341262</ele>
        <time>2024-01-30T11:37:29.903Z</time>
      </trkpt>
      <trkpt lat="43.82198" lon="5.3851">
        <ele>436.56736</ele>
        <time>2024-01-30T11:37:32.993Z</time>
      </trkpt>
      <trkpt lat="43.82199" lon="5.38494">
        <ele>435.936097</ele>
        <time>2024-01-30T11:37:35.680Z</time>
      </trkpt>
      <trkpt lat="43.82193" lon="5.38463">
        <ele>434.716419</ele>
        <time>2024-01-30T11:37:38.861Z</time>
      </trkpt>
      <trkpt lat="43.82195" lon="5.3837">
        <ele>431.126844</ele>
        <time>2024-01-30T11:37:48.892Z</time>
      </trkpt>
      <trkpt lat="43.82194" lon="5.38346">
        <ele>430.202855</ele>
        <time>2024-01-30T11:37:51.660Z</time>
      </trkpt>
      <trkpt lat="43.82191" lon="5.38338">
        <ele>429.890128</ele>
        <time>2024-01-30T11:37:52.735Z</time>
      </trkpt>
      <trkpt lat="43.82179" lon="5.38323">
        <ele>428.984593</ele>
        <time>2024-01-30T11:37:55.753Z</time>
      </trkpt>
      <trkpt lat="43.82135" lon="5.38297">
        <ele>427.197281</ele>
        <time>2024-01-30T11:38:06.537Z</time>
      </trkpt>
      <trkpt lat="43.82113" lon="5.38272">
        <ele>426.395481</ele>
        <time>2024-01-30T11:38:12.003Z</time>
      </trkpt>
      <trkpt lat="43.8208" lon="5.38257">
        <ele>425.398724</ele>
        <time>2024-01-30T11:38:17.364Z</time>
      </trkpt>
      <trkpt lat="43.8207" lon="5.38244">
        <ele>425.00918</ele>
        <time>2024-01-30T11:38:19.295Z</time>
      </trkpt>
      <trkpt lat="43.82045" lon="5.3818">
        <ele>423.51017</ele>
        <time>2024-01-30T11:38:26.637Z</time>
      </trkpt>
      <trkpt lat="43.82037" lon="5.38114">
        <ele>421.536202</ele>
        <time>2024-01-30T11:38:33.008Z</time>
      </trkpt>
      <trkpt lat="43.82037" lon="5.3808">
        <ele>420.325916</ele>
        <time>2024-01-30T11:38:36.183Z</time>
      </trkpt>
      <trkpt lat="43.82039" lon="5.38052">
        <ele>419.272105</ele>
        <time>2024-01-30T11:38:38.859Z</time>
      </trkpt>
      <trkpt lat="43.82048" lon="5.38033">
        <ele>418.464217</ele>
        <time>2024-01-30T11:38:40.944Z</time>
      </trkpt>
      <trkpt lat="43.82072" lon="5.38006">
        <ele>416.916836</ele>
        <time>2024-01-30T11:38:45.009Z</time>
      </trkpt>
      <trkpt lat="43.82078" lon="5.3799">
        <ele>416.255484</ele>
        <time>2024-01-30T11:38:46.776Z</time>
      </trkpt>
      <trkpt lat="43.82082" lon="5.37967">
        <ele>415.42186</ele>
        <time>2024-01-30T11:38:49.039Z</time>
      </trkpt>
      <trkpt lat="43.82085" lon="5.37931">
        <ele>414.105886</ele>
        <time>2024-01-30T11:38:52.684Z</time>
      </trkpt>
      <trkpt lat="43.82079" lon="5.37847">
        <ele>411.287371</ele>
        <time>2024-01-30T11:39:01.209Z</time>
      </trkpt>
      <trkpt lat="43.8208" lon="5.37831">
        <ele>410.765701</ele>
        <time>2024-01-30T11:39:02.766Z</time>
      </trkpt>
      <trkpt lat="43.82103" lon="5.3773">
        <ele>407.284674</ele>
        <time>2024-01-30T11:39:13.151Z</time>
      </trkpt>
      <trkpt lat="43.82138" lon="5.3764">
        <ele>403.887808</ele>
        <time>2024-01-30T11:39:22.830Z</time>
      </trkpt>
      <trkpt lat="43.82141" lon="5.37623">
        <ele>403.291873</ele>
        <time>2024-01-30T11:39:24.529Z</time>
      </trkpt>
      <trkpt lat="43.82142" lon="5.37579">
        <ele>401.850011</ele>
        <time>2024-01-30T11:39:28.682Z</time>
      </trkpt>
      <trkpt lat="43.82145" lon="5.37557">
        <ele>401.09133</ele>
        <time>2024-01-30T11:39:30.960Z</time>
      </trkpt>
      <trkpt lat="43.82157" lon="5.37531">
        <ele>400.067557</ele>
        <time>2024-01-30T11:39:34.059Z</time>
      </trkpt>
      <trkpt lat="43.82195" lon="5.37461">
        <ele>397.151972</ele>
        <time>2024-01-30T11:39:42.995Z</time>
      </trkpt>
      <trkpt lat="43.82217" lon="5.3736">
        <ele>394.039367</ele>
        <time>2024-01-30T11:39:53.069Z</time>
      </trkpt>
      <trkpt lat="43.82227" lon="5.37335">
        <ele>393.207611</ele>
        <time>2024-01-30T11:39:55.929Z</time>
      </trkpt>
      <trkpt lat="43.8224" lon="5.37311">
        <ele>392.316322</ele>
        <time>2024-01-30T11:39:59.142Z</time>
      </trkpt>
      <trkpt lat="43.82257" lon="5.37291">
        <ele>391.410468</ele>
        <time>2024-01-30T11:40:02.296Z</time>
      </trkpt>
      <trkpt lat="43.82286" lon="5.37269">
        <ele>390.062402</ele>
        <time>2024-01-30T11:40:06.966Z</time>
      </trkpt>
      <trkpt lat="43.82304" lon="5.37248">
        <ele>389.058291</ele>
        <time>2024-01-30T11:40:10.255Z</time>
      </trkpt>
      <trkpt lat="43.82297" lon="5.37236">
        <ele>388.578176</ele>
        <time>2024-01-30T11:40:13.054Z</time>
      </trkpt>
      <trkpt lat="43.82293" lon="5.37207">
        <ele>387.692084</ele>
        <time>2024-01-30T11:40:18.185Z</time>
      </trkpt>
      <trkpt lat="43.82293" lon="5.3719">
        <ele>387.176549</ele>
        <time>2024-01-30T11:40:21.051Z</time>
      </trkpt>
      <trkpt lat="43.82295" lon="5.37169">
        <ele>386.509733</ele>
        <time>2024-01-30T11:40:24.853Z</time>
      </trkpt>
      <trkpt lat="43.82311" lon="5.37124">
        <ele>384.993034</ele>
        <time>2024-01-30T11:40:33.318Z</time>
      </trkpt>
      <trkpt lat="43.8231" lon="5.37087">
        <ele>383.854564</ele>
        <time>2024-01-30T11:40:39.777Z</time>
      </trkpt>
      <trkpt lat="43.82304" lon="5.37069">
        <ele>383.264992</ele>
        <time>2024-01-30T11:40:43.480Z</time>
      </trkpt>
      <trkpt lat="43.82283" lon="5.37027">
        <ele>382.181051</ele>
        <time>2024-01-30T11:40:53.606Z</time>
      </trkpt>
      <trkpt lat="43.82266" lon="5.36987">
        <ele>381.757345</ele>
        <time>2024-01-30T11:41:02.307Z</time>
      </trkpt>
      <trkpt lat="43.82264" lon="5.36961">
        <ele>381.511865</ele>
        <time>2024-01-30T11:41:07.438Z</time>
      </trkpt>
      <trkpt lat="43.82264" lon="5.36945">
        <ele>381.365371</ele>
        <time>2024-01-30T11:41:10.678Z</time>
      </trkpt>
      <trkpt lat="43.82272" lon="5.36915">
        <ele>381.074595</ele>
        <time>2024-01-30T11:41:17.150Z</time>
      </trkpt>
      <trkpt lat="43.82277" lon="5.36874">
        <ele>380.692119</ele>
        <time>2024-01-30T11:41:26.267Z</time>
      </trkpt>
      <trkpt lat="43.82279" lon="5.36835">
        <ele>380.333646</ele>
        <time>2024-01-30T11:41:35.369Z</time>
      </trkpt>
      <trkpt lat="43.82277" lon="5.36815">
        <ele>380.151447</ele>
        <time>2024-01-30T11:41:40.184Z</time>
      </trkpt>
      <trkpt lat="43.8227" lon="5.3678">
        <ele>380.416565</ele>
        <time>2024-01-30T11:41:49.463Z</time>
      </trkpt>
      <trkpt lat="43.82251" lon="5.36705">
        <ele>381.222803</ele>
        <time>2024-01-30T11:42:12.008Z</time>
      </trkpt>
      <trkpt lat="43.82238" lon="5.3667">
        <ele>381.628748</ele>
        <time>2024-01-30T11:42:24.555Z</time>
      </trkpt>
      <trkpt lat="43.82201" lon="5.3653">
        <ele>382.038256</ele>
        <time>2024-01-30T11:43:08.849Z</time>
      </trkpt>
      <trkpt lat="43.82189" lon="5.3644">
        <ele>380.90895</ele>
        <time>2024-01-30T11:43:27.396Z</time>
      </trkpt>
      <trkpt lat="43.82166" lon="5.36378">
        <ele>380.054247</ele>
        <time>2024-01-30T11:43:40.367Z</time>
      </trkpt>
      <trkpt lat="43.82164" lon="5.36359">
        <ele>379.819082</ele>
        <time>2024-01-30T11:43:43.846Z</time>
      </trkpt>
      <trkpt lat="43.82175" lon="5.36282">
        <ele>377.320392</ele>
        <time>2024-01-30T11:43:57.914Z</time>
      </trkpt>
      <trkpt lat="43.82175" lon="5.3627">
        <ele>376.863771</ele>
        <time>2024-01-30T11:44:00.011Z</time>
      </trkpt>
      <trkpt lat="43.82168" lon="5.36251">
        <ele>376.097587</ele>
        <time>2024-01-30T11:44:03.529Z</time>
      </trkpt>
      <trkpt lat="43.82151" lon="5.3623">
        <ele>374.877423</ele>
        <time>2024-01-30T11:44:09.044Z</time>
      </trkpt>
      <trkpt lat="43.82145" lon="5.36218">
        <ele>374.316393</ele>
        <time>2024-01-30T11:44:11.582Z</time>
      </trkpt>
      <trkpt lat="43.8214" lon="5.36197">
        <ele>373.485812</ele>
        <time>2024-01-30T11:44:15.365Z</time>
      </trkpt>
      <trkpt lat="43.82111" lon="5.36124">
        <ele>370.30537</ele>
        <time>2024-01-30T11:44:29.623Z</time>
      </trkpt>
      <trkpt lat="43.82084" lon="5.36018">
        <ele>363.18272</ele>
        <time>2024-01-30T11:44:47.855Z</time>
      </trkpt>
      <trkpt lat="43.82056" lon="5.35976">
        <ele>359.487165</ele>
        <time>2024-01-30T11:44:56.745Z</time>
      </trkpt>
      <trkpt lat="43.82055" lon="5.35968">
        <ele>358.967442</ele>
        <time>2024-01-30T11:44:57.975Z</time>
      </trkpt>
      <trkpt lat="43.82062" lon="5.35968">
        <ele>358.3219</ele>
        <time>2024-01-30T11:44:59.476Z</time>
      </trkpt>
      <trkpt lat="43.8208" lon="5.35979">
        <ele>356.575314</ele>
        <time>2024-01-30T11:45:03.609Z</time>
      </trkpt>
      <trkpt lat="43.82086" lon="5.35979">
        <ele>356.055368</ele>
        <time>2024-01-30T11:45:04.852Z</time>
      </trkpt>
      <trkpt lat="43.82087" lon="5.35977">
        <ele>355.876364</ele>
        <time>2024-01-30T11:45:05.267Z</time>
      </trkpt>
      <trkpt lat="43.8209" lon="5.35976">
        <ele>355.607859</ele>
        <time>2024-01-30T11:45:05.895Z</time>
      </trkpt>
      <trkpt lat="43.82092" lon="5.35962">
        <ele>354.683261</ele>
        <time>2024-01-30T11:45:08.034Z</time>
      </trkpt>
      <trkpt lat="43.82089" lon="5.35873">
        <ele>348.640728</ele>
        <time>2024-01-30T11:45:21.668Z</time>
      </trkpt>
      <trkpt lat="43.82091" lon="5.35864">
        <ele>347.994826</ele>
        <time>2024-01-30T11:45:23.090Z</time>
      </trkpt>
      <trkpt lat="43.82096" lon="5.35859">
        <ele>347.350223</ele>
        <time>2024-01-30T11:45:24.525Z</time>
      </trkpt>
      <trkpt lat="43.82103" lon="5.35858">
        <ele>346.752805</ele>
        <time>2024-01-30T11:45:25.870Z</time>
      </trkpt>
      <trkpt lat="43.82117" lon="5.35863">
        <ele>345.356475</ele>
        <time>2024-01-30T11:45:29.040Z</time>
      </trkpt>
      <trkpt lat="43.82122" lon="5.35853">
        <ele>344.523132</ele>
        <time>2024-01-30T11:45:30.863Z</time>
      </trkpt>
      <trkpt lat="43.82129" lon="5.35846">
        <ele>343.64606</ele>
        <time>2024-01-30T11:45:32.795Z</time>
      </trkpt>
      <trkpt lat="43.82134" lon="5.35843">
        <ele>343.128344</ele>
        <time>2024-01-30T11:45:33.967Z</time>
      </trkpt>
      <trkpt lat="43.82152" lon="5.35831">
        <ele>341.265269</ele>
        <time>2024-01-30T11:45:38.177Z</time>
      </trkpt>
      <trkpt lat="43.82157" lon="5.35823">
        <ele>340.517595</ele>
        <time>2024-01-30T11:45:39.850Z</time>
      </trkpt>
      <trkpt lat="43.82162" lon="5.35814">
        <ele>339.773791</ele>
        <time>2024-01-30T11:45:41.542Z</time>
      </trkpt>
      <trkpt lat="43.82162" lon="5.35802">
        <ele>338.918214</ele>
        <time>2024-01-30T11:45:43.547Z</time>
      </trkpt>
      <trkpt lat="43.82166" lon="5.35783">
        <ele>337.561834</ele>
        <time>2024-01-30T11:45:46.705Z</time>
      </trkpt>
      <trkpt lat="43.82174" lon="5.35763">
        <ele>336.457078</ele>
        <time>2024-01-30T11:45:50.317Z</time>
      </trkpt>
      <trkpt lat="43.82184" lon="5.35747">
        <ele>335.770749</ele>
        <time>2024-01-30T11:45:54.096Z</time>
      </trkpt>
      <trkpt lat="43.82168" lon="5.35721">
        <ele>334.719411</ele>
        <time>2024-01-30T11:45:59.934Z</time>
      </trkpt>
      <trkpt lat="43.82141" lon="5.35674">
        <ele>332.894731</ele>
        <time>2024-01-30T11:46:10.719Z</time>
      </trkpt>
      <trkpt lat="43.82101" lon="5.3563">
        <ele>330.710807</ele>
        <time>2024-01-30T11:46:24.160Z</time>
      </trkpt>
      <trkpt lat="43.82091" lon="5.35608">
        <ele>329.93158</ele>
        <time>2024-01-30T11:46:28.998Z</time>
      </trkpt>
      <trkpt lat="43.82071" lon="5.35578">
        <ele>329.035596</ele>
        <time>2024-01-30T11:46:36.907Z</time>
      </trkpt>
      <trkpt lat="43.82051" lon="5.35531">
        <ele>328.618233</ele>
        <time>2024-01-30T11:46:47.401Z</time>
      </trkpt>
      <trkpt lat="43.82003" lon="5.35443">
        <ele>327.760657</ele>
        <time>2024-01-30T11:47:11.945Z</time>
      </trkpt>
      <trkpt lat="43.8195" lon="5.35369">
        <ele>326.859445</ele>
        <time>2024-01-30T11:47:34.885Z</time>
      </trkpt>
      <trkpt lat="43.8194" lon="5.35358">
        <ele>326.680298</ele>
        <time>2024-01-30T11:47:38.775Z</time>
      </trkpt>
      <trkpt lat="43.8192" lon="5.35347">
        <ele>326.369894</ele>
        <time>2024-01-30T11:47:45.213Z</time>
      </trkpt>
      <trkpt lat="43.81904" lon="5.35339">
        <ele>326.135914</ele>
        <time>2024-01-30T11:47:50.191Z</time>
      </trkpt>
      <trkpt lat="43.81891" lon="5.35314">
        <ele>325.817766</ele>
        <time>2024-01-30T11:47:56.596Z</time>
      </trkpt>
      <trkpt lat="43.81864" lon="5.35233">
        <ele>324.905946</ele>
        <time>2024-01-30T11:48:14.449Z</time>
      </trkpt>
      <trkpt lat="43.81854" lon="5.35206">
        <ele>324.458273</ele>
        <time>2024-01-30T11:48:18.407Z</time>
      </trkpt>
      <trkpt lat="43.81841" lon="5.3513">
        <ele>322.567154</ele>
        <time>2024-01-30T11:48:27.452Z</time>
      </trkpt>
      <trkpt lat="43.81822" lon="5.35051">
        <ele>320.536872</ele>
        <time>2024-01-30T11:48:37.004Z</time>
      </trkpt>
      <trkpt lat="43.8179" lon="5.34975">
        <ele>318.398353</ele>
        <time>2024-01-30T11:48:47.142Z</time>
      </trkpt>
      <trkpt lat="43.81774" lon="5.34947">
        <ele>317.504675</ele>
        <time>2024-01-30T11:48:51.291Z</time>
      </trkpt>
      <trkpt lat="43.81762" lon="5.34922">
        <ele>316.775364</ele>
        <time>2024-01-30T11:48:54.644Z</time>
      </trkpt>
      <trkpt lat="43.81747" lon="5.349">
        <ele>316.00763</ele>
        <time>2024-01-30T11:48:58.264Z</time>
      </trkpt>
      <trkpt lat="43.81743" lon="5.3488">
        <ele>315.500439</ele>
        <time>2024-01-30T11:49:00.581Z</time>
      </trkpt>
      <trkpt lat="43.81699" lon="5.34761">
        <ele>312.24256</ele>
        <time>2024-01-30T11:49:25.523Z</time>
      </trkpt>
      <trkpt lat="43.81689" lon="5.34744">
        <ele>311.836753</ele>
        <time>2024-01-30T11:49:29.552Z</time>
      </trkpt>
      <trkpt lat="43.81667" lon="5.34721">
        <ele>311.119681</ele>
        <time>2024-01-30T11:49:36.731Z</time>
      </trkpt>
      <trkpt lat="43.81653" lon="5.34709">
        <ele>310.694592</ele>
        <time>2024-01-30T11:49:41.024Z</time>
      </trkpt>
      <trkpt lat="43.81613" lon="5.34685">
        <ele>309.569733</ele>
        <time>2024-01-30T11:49:52.592Z</time>
      </trkpt>
      <trkpt lat="43.81577" lon="5.34647">
        <ele>308.395896</ele>
        <time>2024-01-30T11:50:04.868Z</time>
      </trkpt>
      <trkpt lat="43.81566" lon="5.34633">
        <ele>308.021698</ele>
        <time>2024-01-30T11:50:08.847Z</time>
      </trkpt>
      <trkpt lat="43.81545" lon="5.34582">
        <ele>307.529134</ele>
        <time>2024-01-30T11:50:20.765Z</time>
      </trkpt>
      <trkpt lat="43.81527" lon="5.34547">
        <ele>307.299062</ele>
        <time>2024-01-30T11:50:29.520Z</time>
      </trkpt>
      <trkpt lat="43.81514" lon="5.34534">
        <ele>307.179974</ele>
        <time>2024-01-30T11:50:34.164Z</time>
      </trkpt>
      <trkpt lat="43.81478" lon="5.34511">
        <ele>306.884557</ele>
        <time>2024-01-30T11:50:45.977Z</time>
      </trkpt>
      <trkpt lat="43.81457" lon="5.34505">
        <ele>306.723448</ele>
        <time>2024-01-30T11:50:52.642Z</time>
      </trkpt>
      <trkpt lat="43.81424" lon="5.34505">
        <ele>306.475075</ele>
        <time>2024-01-30T11:51:03.386Z</time>
      </trkpt>
      <trkpt lat="43.81395" lon="5.34514">
        <ele>306.859069</ele>
        <time>2024-01-30T11:51:13.677Z</time>
      </trkpt>
      <trkpt lat="43.81372" lon="5.34517">
        <ele>307.278434</ele>
        <time>2024-01-30T11:51:22.113Z</time>
      </trkpt>
      <trkpt lat="43.81318" lon="5.34507">
        <ele>308.244657</ele>
        <time>2024-01-30T11:51:41.667Z</time>
      </trkpt>
      <trkpt lat="43.813" lon="5.34496">
        <ele>308.588895</ele>
        <time>2024-01-30T11:51:48.960Z</time>
      </trkpt>
      <trkpt lat="43.81262" lon="5.34464">
        <ele>309.381518</ele>
        <time>2024-01-30T11:52:09.816Z</time>
      </trkpt>
      <trkpt lat="43.81165" lon="5.34397">
        <ele>311.72249</ele>
        <time>2024-01-30T11:53:09.998Z</time>
      </trkpt>
      <trkpt lat="43.81156" lon="5.34398">
        <ele>311.93813</ele>
        <time>2024-01-30T11:53:13.455Z</time>
      </trkpt>
      <trkpt lat="43.81148" lon="5.34402">
        <ele>312.122636</ele>
        <time>2024-01-30T11:53:16.107Z</time>
      </trkpt>
      <trkpt lat="43.81133" lon="5.34411">
        <ele>312.482771</ele>
        <time>2024-01-30T11:53:22.696Z</time>
      </trkpt>
      <trkpt lat="43.81095" lon="5.34414">
        <ele>313.333136</ele>
        <time>2024-01-30T11:53:34.648Z</time>
      </trkpt>
      <trkpt lat="43.81073" lon="5.34403">
        <ele>313.279399</ele>
        <time>2024-01-30T11:53:41.155Z</time>
      </trkpt>
      <trkpt lat="43.81063" lon="5.34388">
        <ele>312.763922</ele>
        <time>2024-01-30T11:53:45.378Z</time>
      </trkpt>
      <trkpt lat="43.81048" lon="5.34336">
        <ele>311.398349</ele>
        <time>2024-01-30T11:53:56.221Z</time>
      </trkpt>
      <trkpt lat="43.81039" lon="5.3432">
        <ele>310.88685</ele>
        <time>2024-01-30T11:54:00.302Z</time>
      </trkpt>
      <trkpt lat="43.81026" lon="5.34306">
        <ele>310.335429</ele>
        <time>2024-01-30T11:54:04.996Z</time>
      </trkpt>
      <trkpt lat="43.80986" lon="5.34275">
        <ele>308.788158</ele>
        <time>2024-01-30T11:54:15.944Z</time>
      </trkpt>
      <trkpt lat="43.80954" lon="5.34233">
        <ele>307.188261</ele>
        <time>2024-01-30T11:54:26.130Z</time>
      </trkpt>
      <trkpt lat="43.8093" lon="5.34225">
        <ele>305.947812</ele>
        <time>2024-01-30T11:54:32.029Z</time>
      </trkpt>
      <trkpt lat="43.8091" lon="5.34265">
        <ele>304.24459</ele>
        <time>2024-01-30T11:54:36.545Z</time>
      </trkpt>
      <trkpt lat="43.80835" lon="5.3434">
        <ele>299.689715</ele>
        <time>2024-01-30T11:54:49.149Z</time>
      </trkpt>
      <trkpt lat="43.80764" lon="5.34387">
        <ele>297.512143</ele>
        <time>2024-01-30T11:55:00.026Z</time>
      </trkpt>
      <trkpt lat="43.80698" lon="5.34416">
        <ele>296.125722</ele>
        <time>2024-01-30T11:55:11.379Z</time>
      </trkpt>
      <trkpt lat="43.80662" lon="5.34447">
        <ele>295.261993</ele>
        <time>2024-01-30T11:55:20.012Z</time>
      </trkpt>
      <trkpt lat="43.8064" lon="5.34467">
        <ele>294.85428</ele>
        <time>2024-01-30T11:55:24.506Z</time>
      </trkpt>
      <trkpt lat="43.80612" lon="5.34484">
        <ele>294.478465</ele>
        <time>2024-01-30T11:55:29.157Z</time>
      </trkpt>
      <trkpt lat="43.80563" lon="5.34508">
        <ele>293.830689</ele>
        <time>2024-01-30T11:55:37.118Z</time>
      </trkpt>
      <trkpt lat="43.80544" lon="5.34511">
        <ele>293.588841</ele>
        <time>2024-01-30T11:55:40.467Z</time>
      </trkpt>
      <trkpt lat="43.80532" lon="5.34506">
        <ele>293.431341</ele>
        <time>2024-01-30T11:55:42.600Z</time>
      </trkpt>
      <trkpt lat="43.80523" lon="5.34497">
        <ele>293.292098</ele>
        <time>2024-01-30T11:55:44.844Z</time>
      </trkpt>
      <trkpt lat="43.80514" lon="5.34451">
        <ele>292.866203</ele>
        <time>2024-01-30T11:55:51.380Z</time>
      </trkpt>
      <trkpt lat="43.8051" lon="5.3442">
        <ele>292.502527</ele>
        <time>2024-01-30T11:55:55.328Z</time>
      </trkpt>
      <trkpt lat="43.80505" lon="5.34404">
        <ele>292.297424</ele>
        <time>2024-01-30T11:55:57.300Z</time>
      </trkpt>
      <trkpt lat="43.80498" lon="5.34392">
        <ele>292.10266</ele>
        <time>2024-01-30T11:55:59.060Z</time>
      </trkpt>
      <trkpt lat="43.80487" lon="5.34388">
        <ele>291.900951</ele>
        <time>2024-01-30T11:56:00.890Z</time>
      </trkpt>
      <trkpt lat="43.80461" lon="5.34407">
        <ele>291.415093</ele>
        <time>2024-01-30T11:56:04.989Z</time>
      </trkpt>
      <trkpt lat="43.80424" lon="5.34404">
        <ele>290.779714</ele>
        <time>2024-01-30T11:56:10.170Z</time>
      </trkpt>
      <trkpt lat="43.80395" lon="5.34395">
        <ele>290.282911</ele>
        <time>2024-01-30T11:56:14.396Z</time>
      </trkpt>
      <trkpt lat="43.80377" lon="5.34396">
        <ele>289.983822</ele>
        <time>2024-01-30T11:56:17.413Z</time>
      </trkpt>
      <trkpt lat="43.80349" lon="5.34419">
        <ele>290.192957</ele>
        <time>2024-01-30T11:56:26.656Z</time>
      </trkpt>
      <trkpt lat="43.80336" lon="5.34424">
        <ele>290.457732</ele>
        <time>2024-01-30T11:56:31.268Z</time>
      </trkpt>
      <trkpt lat="43.80318" lon="5.34419">
        <ele>290.798805</ele>
        <time>2024-01-30T11:56:37.485Z</time>
      </trkpt>
      <trkpt lat="43.8028" lon="5.34387">
        <ele>291.674121</ele>
        <time>2024-01-30T11:56:53.917Z</time>
      </trkpt>
      <trkpt lat="43.80265" lon="5.34385">
        <ele>291.966557</ele>
        <time>2024-01-30T11:56:59.123Z</time>
      </trkpt>
      <trkpt lat="43.80248" lon="5.34392">
        <ele>292.326653</ele>
        <time>2024-01-30T11:57:04.859Z</time>
      </trkpt>
      <trkpt lat="43.80225" lon="5.34424">
        <ele>292.960169</ele>
        <time>2024-01-30T11:57:13.808Z</time>
      </trkpt>
      <trkpt lat="43.80205" lon="5.34443">
        <ele>293.264969</ele>
        <time>2024-01-30T11:57:20.068Z</time>
      </trkpt>
      <trkpt lat="43.80195" lon="5.34446">
        <ele>293.192092</ele>
        <time>2024-01-30T11:57:22.451Z</time>
      </trkpt>
      <trkpt lat="43.8018" lon="5.34444">
        <ele>293.085212</ele>
        <time>2024-01-30T11:57:26.276Z</time>
      </trkpt>
      <trkpt lat="43.80136" lon="5.34413">
        <ele>292.741087</ele>
        <time>2024-01-30T11:57:37.524Z</time>
      </trkpt>
      <trkpt lat="43.79997" lon="5.3434">
        <ele>289.713581</ele>
        <time>2024-01-30T11:58:00.588Z</time>
      </trkpt>
      <trkpt lat="43.7993" lon="5.34295">
        <ele>286.25682</ele>
        <time>2024-01-30T11:58:10.285Z</time>
      </trkpt>
      <trkpt lat="43.79904" lon="5.34269">
        <ele>284.779332</ele>
        <time>2024-01-30T11:58:14.395Z</time>
      </trkpt>
      <trkpt lat="43.79887" lon="5.34246">
        <ele>283.659497</ele>
        <time>2024-01-30T11:58:17.506Z</time>
      </trkpt>
      <trkpt lat="43.7988" lon="5.34233">
        <ele>282.990783</ele>
        <time>2024-01-30T11:58:18.998Z</time>
      </trkpt>
      <trkpt lat="43.79863" lon="5.34179">
        <ele>280.481032</ele>
        <time>2024-01-30T11:58:24.571Z</time>
      </trkpt>
      <trkpt lat="43.79852" lon="5.34156">
        <ele>279.3238</ele>
        <time>2024-01-30T11:58:27.113Z</time>
      </trkpt>
      <trkpt lat="43.79842" lon="5.34148">
        <ele>278.621171</ele>
        <time>2024-01-30T11:58:28.670Z</time>
      </trkpt>
      <trkpt lat="43.79829" lon="5.34145">
        <ele>277.855225</ele>
        <time>2024-01-30T11:58:30.347Z</time>
      </trkpt>
      <trkpt lat="43.79818" lon="5.3415">
        <ele>277.132914</ele>
        <time>2024-01-30T11:58:31.921Z</time>
      </trkpt>
      <trkpt lat="43.79774" lon="5.34193">
        <ele>273.993538</ele>
        <time>2024-01-30T11:58:38.763Z</time>
      </trkpt>
      <trkpt lat="43.79721" lon="5.3425">
        <ele>270.52025</ele>
        <time>2024-01-30T11:58:47.593Z</time>
      </trkpt>
      <trkpt lat="43.79681" lon="5.34294">
        <ele>268.01084</ele>
        <time>2024-01-30T11:58:54.362Z</time>
      </trkpt>
      <trkpt lat="43.79643" lon="5.34349">
        <ele>265.278704</ele>
        <time>2024-01-30T11:59:01.759Z</time>
      </trkpt>
      <trkpt lat="43.79622" lon="5.3437">
        <ele>264.106532</ele>
        <time>2024-01-30T11:59:05.455Z</time>
      </trkpt>
      <trkpt lat="43.796" lon="5.34378">
        <ele>263.623832</ele>
        <time>2024-01-30T11:59:08.748Z</time>
      </trkpt>
      <trkpt lat="43.79554" lon="5.34366">
        <ele>262.589381</ele>
        <time>2024-01-30T11:59:15.103Z</time>
      </trkpt>
      <trkpt lat="43.79538" lon="5.34371">
        <ele>262.226784</ele>
        <time>2024-01-30T11:59:17.273Z</time>
      </trkpt>
      <trkpt lat="43.79488" lon="5.34394">
        <ele>261.082</ele>
        <time>2024-01-30T11:59:25.639Z</time>
      </trkpt>
      <trkpt lat="43.79457" lon="5.34406">
        <ele>260.3697</ele>
        <time>2024-01-30T11:59:32.679Z</time>
      </trkpt>
      <trkpt lat="43.79456" lon="5.34375">
        <ele>260.889017</ele>
        <time>2024-01-30T11:59:37.178Z</time>
      </trkpt>
      <trkpt lat="43.79451" lon="5.34365">
        <ele>261.222721</ele>
        <time>2024-01-30T11:59:41.470Z</time>
      </trkpt>
      <trkpt lat="43.79444" lon="5.34355">
        <ele>261.625916</ele>
        <time>2024-01-30T11:59:46.187Z</time>
      </trkpt>
      <trkpt lat="43.79442" lon="5.34348">
        <ele>261.820403</ele>
        <time>2024-01-30T11:59:47.687Z</time>
      </trkpt>
      <trkpt lat="43.79443" lon="5.3434">
        <ele>262.055669</ele>
        <time>2024-01-30T11:59:49.453Z</time>
      </trkpt>
      <trkpt lat="43.79455" lon="5.3429">
        <ele>263.487045</ele>
        <time>2024-01-30T12:00:07.339Z</time>
      </trkpt>
      <trkpt lat="43.79448" lon="5.34261">
        <ele>264.320907</ele>
        <time>2024-01-30T12:00:18.441Z</time>
      </trkpt>
      <trkpt lat="43.79424" lon="5.34099">
        <ele>269.74398</ele>
        <time>2024-01-30T12:01:09.173Z</time>
      </trkpt>
      <trkpt lat="43.79427" lon="5.34094">
        <ele>270.025101</ele>
        <time>2024-01-30T12:01:11.569Z</time>
      </trkpt>
      <trkpt lat="43.79431" lon="5.34095">
        <ele>270.262231</ele>
        <time>2024-01-30T12:01:13.715Z</time>
      </trkpt>
      <trkpt lat="43.79434" lon="5.341">
        <ele>270.533509</ele>
        <time>2024-01-30T12:01:16.216Z</time>
      </trkpt>
      <trkpt lat="43.79445" lon="5.34134">
        <ele>272.09943</ele>
        <time>2024-01-30T12:01:30.618Z</time>
      </trkpt>
      <trkpt lat="43.79456" lon="5.34152">
        <ele>273.045671</ele>
        <time>2024-01-30T12:01:38.653Z</time>
      </trkpt>
      <trkpt lat="43.79534" lon="5.34201">
        <ele>278.318197</ele>
        <time>2024-01-30T12:02:24.178Z</time>
      </trkpt>
      <trkpt lat="43.79547" lon="5.34213">
        <ele>279.865959</ele>
        <time>2024-01-30T12:02:32.595Z</time>
      </trkpt>
      <trkpt lat="43.7955" lon="5.34212">
        <ele>280.228836</ele>
        <time>2024-01-30T12:02:34.573Z</time>
      </trkpt>
      <trkpt lat="43.79551" lon="5.342">
        <ele>281.078447</ele>
        <time>2024-01-30T12:02:39.477Z</time>
      </trkpt>
      <trkpt lat="43.79543" lon="5.34173">
        <ele>283.104617</ele>
        <time>2024-01-30T12:02:52.137Z</time>
      </trkpt>
      <trkpt lat="43.79536" lon="5.34128">
        <ele>286.29583</ele>
        <time>2024-01-30T12:03:14.701Z</time>
      </trkpt>
      <trkpt lat="43.79536" lon="5.34109">
        <ele>287.675969</ele>
        <time>2024-01-30T12:03:25.327Z</time>
      </trkpt>
      <trkpt lat="43.79555" lon="5.34046">
        <ele>292.452428</ele>
        <time>2024-01-30T12:04:04.447Z</time>
      </trkpt>
      <trkpt lat="43.79589" lon="5.34002">
        <ele>297.2596</ele>
        <time>2024-01-30T12:04:44.098Z</time>
      </trkpt>
      <trkpt lat="43.79596" lon="5.33985">
        <ele>298.858612</ele>
        <time>2024-01-30T12:04:56.342Z</time>
      </trkpt>
      <trkpt lat="43.79616" lon="5.33875">
        <ele>307.98366</ele>
        <time>2024-01-30T12:06:01.778Z</time>
      </trkpt>
      <trkpt lat="43.79615" lon="5.33867">
        <ele>308.65803</ele>
        <time>2024-01-30T12:06:06.478Z</time>
      </trkpt>
      <trkpt lat="43.79601" lon="5.33858">
        <ele>310.38599</ele>
        <time>2024-01-30T12:06:17.880Z</time>
      </trkpt>
      <trkpt lat="43.79593" lon="5.33848">
        <ele>311.632999</ele>
        <time>2024-01-30T12:06:25.632Z</time>
      </trkpt>
      <trkpt lat="43.79584" lon="5.33833">
        <ele>313.156841</ele>
        <time>2024-01-30T12:06:35.630Z</time>
      </trkpt>
      <trkpt lat="43.7956" lon="5.33789">
        <ele>316.668568</ele>
        <time>2024-01-30T12:07:03.030Z</time>
      </trkpt>
      <trkpt lat="43.79546" lon="5.33782">
        <ele>317.714649</ele>
        <time>2024-01-30T12:07:12.113Z</time>
      </trkpt>
      <trkpt lat="43.79533" lon="5.33789">
        <ele>318.705743</ele>
        <time>2024-01-30T12:07:20.900Z</time>
      </trkpt>
      <trkpt lat="43.79525" lon="5.33788">
        <ele>319.261304</ele>
        <time>2024-01-30T12:07:25.730Z</time>
      </trkpt>
      <trkpt lat="43.79523" lon="5.33777">
        <ele>319.823597</ele>
        <time>2024-01-30T12:07:30.275Z</time>
      </trkpt>
      <trkpt lat="43.7953" lon="5.33744">
        <ele>321.583799</ele>
        <time>2024-01-30T12:07:44.538Z</time>
      </trkpt>
      <trkpt lat="43.79534" lon="5.33708">
        <ele>323.460479</ele>
        <time>2024-01-30T12:07:58.468Z</time>
      </trkpt>
      <trkpt lat="43.79532" lon="5.3366">
        <ele>325.940789</ele>
        <time>2024-01-30T12:08:15.994Z</time>
      </trkpt>
      <trkpt lat="43.79538" lon="5.33613">
        <ele>328.35801</ele>
        <time>2024-01-30T12:08:32.485Z</time>
      </trkpt>
      <trkpt lat="43.79556" lon="5.33562">
        <ele>330.906722</ele>
        <time>2024-01-30T12:08:51.587Z</time>
      </trkpt>
      <trkpt lat="43.79561" lon="5.33541">
        <ele>331.911689</ele>
        <time>2024-01-30T12:08:59.129Z</time>
      </trkpt>
      <trkpt lat="43.79552" lon="5.33437">
        <ele>336.67436</ele>
        <time>2024-01-30T12:09:37.899Z</time>
      </trkpt>
      <trkpt lat="43.79546" lon="5.33427">
        <ele>337.271903</ele>
        <time>2024-01-30T12:09:43.276Z</time>
      </trkpt>
      <trkpt lat="43.79521" lon="5.33405">
        <ele>339.163547</ele>
        <time>2024-01-30T12:10:00.508Z</time>
      </trkpt>
      <trkpt lat="43.79516" lon="5.33391">
        <ele>340.4845</ele>
        <time>2024-01-30T12:10:07.744Z</time>
      </trkpt>
      <trkpt lat="43.79516" lon="5.33386">
        <ele>340.855294</ele>
        <time>2024-01-30T12:10:09.806Z</time>
      </trkpt>
      <trkpt lat="43.79514" lon="5.33369">
        <ele>342.320705</ele>
        <time>2024-01-30T12:10:17.953Z</time>
      </trkpt>
      <trkpt lat="43.79516" lon="5.33314">
        <ele>346.973354</ele>
        <time>2024-01-30T12:10:45.920Z</time>
      </trkpt>
      <trkpt lat="43.79499" lon="5.33266">
        <ele>351.435858</ele>
        <time>2024-01-30T12:11:15.966Z</time>
      </trkpt>
      <trkpt lat="43.79492" lon="5.33239">
        <ele>353.87521</ele>
        <time>2024-01-30T12:11:34.416Z</time>
      </trkpt>
      <trkpt lat="43.7949" lon="5.33221">
        <ele>355.394428</ele>
        <time>2024-01-30T12:11:46.002Z</time>
      </trkpt>
      <trkpt lat="43.79488" lon="5.3313">
        <ele>364.079986</ele>
        <time>2024-01-30T12:12:50.652Z</time>
      </trkpt>
      <trkpt lat="43.79489" lon="5.3312">
        <ele>365.189964</ele>
        <time>2024-01-30T12:12:57.908Z</time>
      </trkpt>
      <trkpt lat="43.79493" lon="5.33076">
        <ele>370.078491</ele>
        <time>2024-01-30T12:13:29.847Z</time>
      </trkpt>
      <trkpt lat="43.79499" lon="5.33044">
        <ele>373.797493</ele>
        <time>2024-01-30T12:13:53.964Z</time>
      </trkpt>
      <trkpt lat="43.79522" lon="5.32996">
        <ele>380.241276</ele>
        <time>2024-01-30T12:14:35.651Z</time>
      </trkpt>
      <trkpt lat="43.79529" lon="5.32993">
        <ele>381.444849</ele>
        <time>2024-01-30T12:14:43.547Z</time>
      </trkpt>
      <trkpt lat="43.79544" lon="5.32994">
        <ele>383.723585</ele>
        <time>2024-01-30T12:14:59.141Z</time>
      </trkpt>
      <trkpt lat="43.79575" lon="5.33014">
        <ele>388.856962</ele>
        <time>2024-01-30T12:15:33.192Z</time>
      </trkpt>
      <trkpt lat="43.79614" lon="5.33027">
        <ele>394.098737</ele>
        <time>2024-01-30T12:16:11.250Z</time>
      </trkpt>
      <trkpt lat="43.79624" lon="5.33026">
        <ele>395.358692</ele>
        <time>2024-01-30T12:16:19.796Z</time>
      </trkpt>
      <trkpt lat="43.79639" lon="5.33019">
        <ele>397.534908</ele>
        <time>2024-01-30T12:16:34.439Z</time>
      </trkpt>
      <trkpt lat="43.79669" lon="5.3301">
        <ele>401.475549</ele>
        <time>2024-01-30T12:17:00.393Z</time>
      </trkpt>
      <trkpt lat="43.79673" lon="5.33007">
        <ele>402.13527</ele>
        <time>2024-01-30T12:17:04.639Z</time>
      </trkpt>
      <trkpt lat="43.79675" lon="5.33">
        <ele>402.788716</ele>
        <time>2024-01-30T12:17:09.249Z</time>
      </trkpt>
      <trkpt lat="43.79674" lon="5.32987">
        <ele>404.047491</ele>
        <time>2024-01-30T12:17:17.438Z</time>
      </trkpt>
      <trkpt lat="43.79672" lon="5.32982">
        <ele>404.676828</ele>
        <time>2024-01-30T12:17:21.041Z</time>
      </trkpt>
      <trkpt lat="43.79655" lon="5.3297">
        <ele>407.198559</ele>
        <time>2024-01-30T12:17:36.219Z</time>
      </trkpt>
      <trkpt lat="43.79651" lon="5.32963">
        <ele>407.964953</ele>
        <time>2024-01-30T12:17:41.298Z</time>
      </trkpt>
      <trkpt lat="43.79645" lon="5.32935">
        <ele>410.784936</ele>
        <time>2024-01-30T12:17:57.161Z</time>
      </trkpt>
      <trkpt lat="43.79643" lon="5.3288">
        <ele>414.850407</ele>
        <time>2024-01-30T12:18:26.639Z</time>
      </trkpt>
      <trkpt lat="43.79645" lon="5.3287">
        <ele>415.684438</ele>
        <time>2024-01-30T12:18:33.260Z</time>
      </trkpt>
      <trkpt lat="43.7967" lon="5.32821">
        <ele>419.998248</ele>
        <time>2024-01-30T12:19:04.708Z</time>
      </trkpt>
      <trkpt lat="43.79676" lon="5.32801">
        <ele>421.519099</ele>
        <time>2024-01-30T12:19:14.692Z</time>
      </trkpt>
      <trkpt lat="43.79679" lon="5.32789">
        <ele>422.463401</ele>
        <time>2024-01-30T12:19:20.887Z</time>
      </trkpt>
      <trkpt lat="43.79678" lon="5.32759">
        <ele>424.607146</ele>
        <time>2024-01-30T12:19:35.220Z</time>
      </trkpt>
      <trkpt lat="43.7968" lon="5.32747">
        <ele>425.534723</ele>
        <time>2024-01-30T12:19:41.564Z</time>
      </trkpt>
      <trkpt lat="43.79712" lon="5.32654">
        <ele>431.590684</ele>
        <time>2024-01-30T12:20:31.659Z</time>
      </trkpt>
      <trkpt lat="43.79728" lon="5.32572">
        <ele>435.322323</ele>
        <time>2024-01-30T12:21:04.632Z</time>
      </trkpt>
      <trkpt lat="43.79745" lon="5.32528">
        <ele>437.520832</ele>
        <time>2024-01-30T12:21:20.282Z</time>
      </trkpt>
      <trkpt lat="43.7975" lon="5.32514">
        <ele>438.206106</ele>
        <time>2024-01-30T12:21:25.135Z</time>
      </trkpt>
      <trkpt lat="43.79759" lon="5.32451">
        <ele>440.619881</ele>
        <time>2024-01-30T12:21:42.574Z</time>
      </trkpt>
      <trkpt lat="43.79766" lon="5.32425">
        <ele>441.052392</ele>
        <time>2024-01-30T12:21:50.137Z</time>
      </trkpt>
      <trkpt lat="43.79797" lon="5.32356">
        <ele>442.309823</ele>
        <time>2024-01-30T12:22:11.312Z</time>
      </trkpt>
      <trkpt lat="43.79812" lon="5.32286">
        <ele>443.441587</ele>
        <time>2024-01-30T12:22:24.068Z</time>
      </trkpt>
      <trkpt lat="43.79816" lon="5.32275">
        <ele>443.633394</ele>
        <time>2024-01-30T12:22:26.265Z</time>
      </trkpt>
      <trkpt lat="43.79844" lon="5.32241">
        <ele>444.386882</ele>
        <time>2024-01-30T12:22:35.030Z</time>
      </trkpt>
      <trkpt lat="43.79858" lon="5.32182">
        <ele>445.145394</ele>
        <time>2024-01-30T12:22:47.356Z</time>
      </trkpt>
      <trkpt lat="43.7985" lon="5.32168">
        <ele>445.35707</ele>
        <time>2024-01-30T12:22:51.997Z</time>
      </trkpt>
      <trkpt lat="43.79846" lon="5.32145">
        <ele>445.640277</ele>
        <time>2024-01-30T12:22:59.302Z</time>
      </trkpt>
      <trkpt lat="43.7984" lon="5.31995">
        <ele>447.672667</ele>
        <time>2024-01-30T12:23:44.739Z</time>
      </trkpt>
      <trkpt lat="43.79828" lon="5.31924">
        <ele>449.575244</ele>
        <time>2024-01-30T12:24:06.142Z</time>
      </trkpt>
      <trkpt lat="43.79829" lon="5.31899">
        <ele>450.235295</ele>
        <time>2024-01-30T12:24:14.571Z</time>
      </trkpt>
      <trkpt lat="43.79834" lon="5.31865">
        <ele>451.128637</ele>
        <time>2024-01-30T12:24:26.724Z</time>
      </trkpt>
      <trkpt lat="43.79835" lon="5.31833">
        <ele>451.957423</ele>
        <time>2024-01-30T12:24:38.974Z</time>
      </trkpt>
      <trkpt lat="43.79844" lon="5.31797">
        <ele>452.96174</ele>
        <time>2024-01-30T12:24:54.622Z</time>
      </trkpt>
      <trkpt lat="43.79872" lon="5.31728">
        <ele>455.917999</ele>
        <time>2024-01-30T12:25:29.718Z</time>
      </trkpt>
      <trkpt lat="43.79879" lon="5.31687">
        <ele>457.786102</ele>
        <time>2024-01-30T12:25:49.034Z</time>
      </trkpt>
      <trkpt lat="43.79884" lon="5.31674">
        <ele>458.472492</ele>
        <time>2024-01-30T12:25:56.202Z</time>
      </trkpt>
      <trkpt lat="43.79906" lon="5.31644">
        <ele>460.402387</ele>
        <time>2024-01-30T12:26:16.645Z</time>
      </trkpt>
      <trkpt lat="43.7994" lon="5.31615">
        <ele>462.87097</ele>
        <time>2024-01-30T12:26:42.514Z</time>
      </trkpt>
      <trkpt lat="43.79973" lon="5.31598">
        <ele>465.022023</ele>
        <time>2024-01-30T12:27:04.618Z</time>
      </trkpt>
      <trkpt lat="43.80011" lon="5.31534">
        <ele>468.38178</ele>
        <time>2024-01-30T12:27:40.552Z</time>
      </trkpt>
      <trkpt lat="43.80032" lon="5.31493">
        <ele>470.416205</ele>
        <time>2024-01-30T12:28:01.608Z</time>
      </trkpt>
      <trkpt lat="43.80047" lon="5.3137">
        <ele>475.608011</ele>
        <time>2024-01-30T12:28:53.327Z</time>
      </trkpt>
      <trkpt lat="43.80049" lon="5.31361">
        <ele>476.111402</ele>
        <time>2024-01-30T12:28:57.204Z</time>
      </trkpt>
      <trkpt lat="43.80043" lon="5.31338">
        <ele>477.481607</ele>
        <time>2024-01-30T12:29:07.944Z</time>
      </trkpt>
      <trkpt lat="43.80035" lon="5.31326">
        <ele>478.382682</ele>
        <time>2024-01-30T12:29:15.331Z</time>
      </trkpt>
      <trkpt lat="43.80139" lon="5.3135">
        <ele>486.529115</ele>
        <time>2024-01-30T12:30:30.993Z</time>
      </trkpt>
      <trkpt lat="43.8017" lon="5.31364">
        <ele>489.010064</ele>
        <time>2024-01-30T12:30:58.501Z</time>
      </trkpt>
      <trkpt lat="43.80244" lon="5.31375">
        <ele>493.8267</ele>
        <time>2024-01-30T12:31:56.476Z</time>
      </trkpt>
      <trkpt lat="43.80264" lon="5.31368">
        <ele>495.176355</ele>
        <time>2024-01-30T12:32:10.783Z</time>
      </trkpt>
      <trkpt lat="43.80283" lon="5.31375">
        <ele>496.43502</ele>
        <time>2024-01-30T12:32:22.213Z</time>
      </trkpt>
      <trkpt lat="43.80292" lon="5.31387">
        <ele>497.254724</ele>
        <time>2024-01-30T12:32:30.007Z</time>
      </trkpt>
      <trkpt lat="43.80299" lon="5.31389">
        <ele>497.692742</ele>
        <time>2024-01-30T12:32:34.054Z</time>
      </trkpt>
      <trkpt lat="43.80308" lon="5.31388">
        <ele>498.271129</ele>
        <time>2024-01-30T12:32:38.455Z</time>
      </trkpt>
      <trkpt lat="43.80333" lon="5.31377">
        <ele>499.989343</ele>
        <time>2024-01-30T12:32:52.279Z</time>
      </trkpt>
      <trkpt lat="43.80321" lon="5.3137">
        <ele>500.53498</ele>
        <time>2024-01-30T12:32:57.567Z</time>
      </trkpt>
      <trkpt lat="43.80297" lon="5.31368">
        <ele>500.314466</ele>
        <time>2024-01-30T12:33:08.471Z</time>
      </trkpt>
      <trkpt lat="43.80284" lon="5.31362">
        <ele>500.191899</ele>
        <time>2024-01-30T12:33:13.160Z</time>
      </trkpt>
      <trkpt lat="43.80219" lon="5.31285">
        <ele>499.417956</ele>
        <time>2024-01-30T12:33:37.711Z</time>
      </trkpt>
      <trkpt lat="43.80188" lon="5.31233">
        <ele>498.977792</ele>
        <time>2024-01-30T12:33:49.638Z</time>
      </trkpt>
      <trkpt lat="43.80176" lon="5.31218">
        <ele>498.775121</ele>
        <time>2024-01-30T12:33:53.765Z</time>
      </trkpt>
      <trkpt lat="43.80163" lon="5.31207">
        <ele>498.573271</ele>
        <time>2024-01-30T12:33:57.731Z</time>
      </trkpt>
      <trkpt lat="43.80096" lon="5.31175">
        <ele>497.596704</ele>
        <time>2024-01-30T12:34:17.714Z</time>
      </trkpt>
      <trkpt lat="43.80085" lon="5.31166">
        <ele>497.418296</ele>
        <time>2024-01-30T12:34:21.609Z</time>
      </trkpt>
      <trkpt lat="43.80072" lon="5.3114">
        <ele>497.10529</ele>
        <time>2024-01-30T12:34:28.359Z</time>
      </trkpt>
      <trkpt lat="43.8007" lon="5.31122">
        <ele>496.930275</ele>
        <time>2024-01-30T12:34:32.278Z</time>
      </trkpt>
      <trkpt lat="43.8007" lon="5.31076">
        <ele>496.485904</ele>
        <time>2024-01-30T12:34:43.019Z</time>
      </trkpt>
      <trkpt lat="43.80074" lon="5.31037">
        <ele>497.022594</ele>
        <time>2024-01-30T12:34:52.035Z</time>
      </trkpt>
      <trkpt lat="43.80073" lon="5.31022">
        <ele>497.217435</ele>
        <time>2024-01-30T12:34:55.546Z</time>
      </trkpt>
      <trkpt lat="43.80059" lon="5.30974">
        <ele>497.912478</ele>
        <time>2024-01-30T12:35:08.985Z</time>
      </trkpt>
      <trkpt lat="43.8006" lon="5.30958">
        <ele>498.124664</ele>
        <time>2024-01-30T12:35:13.238Z</time>
      </trkpt>
      <trkpt lat="43.80066" lon="5.3094">
        <ele>498.394218</ele>
        <time>2024-01-30T12:35:19.698Z</time>
      </trkpt>
      <trkpt lat="43.80074" lon="5.30929">
        <ele>498.595201</ele>
        <time>2024-01-30T12:35:24.749Z</time>
      </trkpt>
      <trkpt lat="43.80097" lon="5.30914">
        <ele>499.079068</ele>
        <time>2024-01-30T12:35:37.153Z</time>
      </trkpt>
      <trkpt lat="43.801" lon="5.30903">
        <ele>499.232186</ele>
        <time>2024-01-30T12:35:41.148Z</time>
      </trkpt>
      <trkpt lat="43.80098" lon="5.30893">
        <ele>499.375811</ele>
        <time>2024-01-30T12:35:44.658Z</time>
      </trkpt>
      <trkpt lat="43.80092" lon="5.30888">
        <ele>499.499386</ele>
        <time>2024-01-30T12:35:47.772Z</time>
      </trkpt>
      <trkpt lat="43.8006" lon="5.30879">
        <ele>500.449415</ele>
        <time>2024-01-30T12:36:04.521Z</time>
      </trkpt>
      <trkpt lat="43.80053" lon="5.3088">
        <ele>500.741288</ele>
        <time>2024-01-30T12:36:08.389Z</time>
      </trkpt>
      <trkpt lat="43.80019" lon="5.30901">
        <ele>502.225875</ele>
        <time>2024-01-30T12:36:28.132Z</time>
      </trkpt>
      <trkpt lat="43.8" lon="5.30902">
        <ele>502.977025</ele>
        <time>2024-01-30T12:36:38.420Z</time>
      </trkpt>
      <trkpt lat="43.79992" lon="5.309">
        <ele>503.294166</ele>
        <time>2024-01-30T12:36:42.460Z</time>
      </trkpt>
      <trkpt lat="43.79966" lon="5.30873">
        <ele>504.587359</ele>
        <time>2024-01-30T12:36:59.614Z</time>
      </trkpt>
      <trkpt lat="43.79961" lon="5.30871">
        <ele>504.799712</ele>
        <time>2024-01-30T12:37:02.068Z</time>
      </trkpt>
      <trkpt lat="43.79951" lon="5.30876">
        <ele>505.212788</ele>
        <time>2024-01-30T12:37:07.358Z</time>
      </trkpt>
      <trkpt lat="43.79939" lon="5.30894">
        <ele>505.899967</ele>
        <time>2024-01-30T12:37:16.277Z</time>
      </trkpt>
      <trkpt lat="43.79939" lon="5.3092">
        <ele>506.652013</ele>
        <time>2024-01-30T12:37:25.878Z</time>
      </trkpt>
      <trkpt lat="43.79935" lon="5.30942">
        <ele>507.297645</ele>
        <time>2024-01-30T12:37:34.643Z</time>
      </trkpt>
      <trkpt lat="43.79906" lon="5.3098">
        <ele>508.811492</ele>
        <time>2024-01-30T12:37:55.302Z</time>
      </trkpt>
      <trkpt lat="43.79862" lon="5.31061">
        <ele>511.60338</ele>
        <time>2024-01-30T12:38:32.086Z</time>
      </trkpt>
      <trkpt lat="43.79839" lon="5.31088">
        <ele>512.752954</ele>
        <time>2024-01-30T12:38:46.427Z</time>
      </trkpt>
      <trkpt lat="43.79802" lon="5.31122">
        <ele>514.67053</ele>
        <time>2024-01-30T12:39:08.450Z</time>
      </trkpt>
      <trkpt lat="43.7976" lon="5.31166">
        <ele>517.411593</ele>
        <time>2024-01-30T12:39:37.657Z</time>
      </trkpt>
      <trkpt lat="43.79755" lon="5.31175">
        <ele>517.840542</ele>
        <time>2024-01-30T12:39:42.534Z</time>
      </trkpt>
      <trkpt lat="43.79752" lon="5.31223">
        <ele>519.623116</ele>
        <time>2024-01-30T12:40:03.384Z</time>
      </trkpt>
      <trkpt lat="43.79748" lon="5.31236">
        <ele>520.154678</ele>
        <time>2024-01-30T12:40:09.459Z</time>
      </trkpt>
      <trkpt lat="43.79737" lon="5.31241">
        <ele>520.773493</ele>
        <time>2024-01-30T12:40:17.135Z</time>
      </trkpt>
      <trkpt lat="43.79713" lon="5.31239">
        <ele>522.039067</ele>
        <time>2024-01-30T12:40:32.527Z</time>
      </trkpt>
      <trkpt lat="43.7967" lon="5.31225">
        <ele>524.044109</ele>
        <time>2024-01-30T12:41:00.128Z</time>
      </trkpt>
      <trkpt lat="43.79618" lon="5.31197">
        <ele>526.183318</ele>
        <time>2024-01-30T12:41:31.927Z</time>
      </trkpt>
      <trkpt lat="43.79558" lon="5.3121">
        <ele>528.515153</ele>
        <time>2024-01-30T12:42:02.860Z</time>
      </trkpt>
      <trkpt lat="43.79432" lon="5.31238">
        <ele>530.634443</ele>
        <time>2024-01-30T12:42:50.850Z</time>
      </trkpt>
      <trkpt lat="43.7939" lon="5.3124">
        <ele>530.882678</ele>
        <time>2024-01-30T12:43:04.773Z</time>
      </trkpt>
      <trkpt lat="43.7937" lon="5.31237">
        <ele>531.001735</ele>
        <time>2024-01-30T12:43:11.272Z</time>
      </trkpt>
      <trkpt lat="43.79341" lon="5.31222">
        <ele>531.184196</ele>
        <time>2024-01-30T12:43:20.987Z</time>
      </trkpt>
      <trkpt lat="43.79334" lon="5.31214">
        <ele>530.877686</ele>
        <time>2024-01-30T12:43:23.688Z</time>
      </trkpt>
      <trkpt lat="43.79327" lon="5.31201">
        <ele>530.358708</ele>
        <time>2024-01-30T12:43:27.366Z</time>
      </trkpt>
      <trkpt lat="43.79319" lon="5.31177">
        <ele>529.565733</ele>
        <time>2024-01-30T12:43:32.789Z</time>
      </trkpt>
      <trkpt lat="43.79307" lon="5.31166">
        <ele>528.948953</ele>
        <time>2024-01-30T12:43:36.948Z</time>
      </trkpt>
      <trkpt lat="43.79294" lon="5.31162">
        <ele>528.390943</ele>
        <time>2024-01-30T12:43:40.561Z</time>
      </trkpt>
      <trkpt lat="43.79278" lon="5.31162">
        <ele>527.713172</ele>
        <time>2024-01-30T12:43:45.065Z</time>
      </trkpt>
      <trkpt lat="43.79254" lon="5.31172">
        <ele>526.625396</ele>
        <time>2024-01-30T12:43:51.513Z</time>
      </trkpt>
      <trkpt lat="43.79224" lon="5.31195">
        <ele>525.171987</ele>
        <time>2024-01-30T12:43:59.449Z</time>
      </trkpt>
      <trkpt lat="43.79205" lon="5.31205">
        <ele>524.313895</ele>
        <time>2024-01-30T12:44:04.009Z</time>
      </trkpt>
      <trkpt lat="43.79156" lon="5.31211">
        <ele>520.238459</ele>
        <time>2024-01-30T12:44:14.655Z</time>
      </trkpt>
      <trkpt lat="43.79146" lon="5.31216">
        <ele>519.164566</ele>
        <time>2024-01-30T12:44:16.834Z</time>
      </trkpt>
      <trkpt lat="43.79139" lon="5.31219">
        <ele>518.421354</ele>
        <time>2024-01-30T12:44:18.331Z</time>
      </trkpt>
      <trkpt lat="43.79138" lon="5.31213">
        <ele>517.924721</ele>
        <time>2024-01-30T12:44:19.316Z</time>
      </trkpt>
      <trkpt lat="43.79123" lon="5.31207">
        <ele>516.379367</ele>
        <time>2024-01-30T12:44:22.439Z</time>
      </trkpt>
      <trkpt lat="43.79119" lon="5.31206">
        <ele>515.945288</ele>
        <time>2024-01-30T12:44:23.333Z</time>
      </trkpt>
      <trkpt lat="43.79106" lon="5.31207">
        <ele>514.50258</ele>
        <time>2024-01-30T12:44:26.254Z</time>
      </trkpt>
      <trkpt lat="43.79099" lon="5.31211">
        <ele>513.728233</ele>
        <time>2024-01-30T12:44:27.798Z</time>
      </trkpt>
      <trkpt lat="43.79095" lon="5.31206">
        <ele>513.189313</ele>
        <time>2024-01-30T12:44:28.870Z</time>
      </trkpt>
      <trkpt lat="43.79093" lon="5.31169">
        <ele>510.394767</ele>
        <time>2024-01-30T12:44:34.571Z</time>
      </trkpt>
      <trkpt lat="43.79089" lon="5.31163">
        <ele>509.714186</ele>
        <time>2024-01-30T12:44:35.926Z</time>
      </trkpt>
      <trkpt lat="43.79068" lon="5.31184">
        <ele>507.015411</ele>
        <time>2024-01-30T12:44:41.430Z</time>
      </trkpt>
      <trkpt lat="43.79058" lon="5.31202">
        <ele>505.3034</ele>
        <time>2024-01-30T12:44:44.846Z</time>
      </trkpt>
      <trkpt lat="43.79038" lon="5.31219">
        <ele>502.467091</ele>
        <time>2024-01-30T12:44:49.798Z</time>
      </trkpt>
      <trkpt lat="43.79021" lon="5.31239">
        <ele>499.651027</ele>
        <time>2024-01-30T12:44:54.402Z</time>
      </trkpt>
      <trkpt lat="43.78992" lon="5.31285">
        <ele>494.010528</ele>
        <time>2024-01-30T12:45:03.611Z</time>
      </trkpt>
      <trkpt lat="43.7898" lon="5.31294">
        <ele>492.319222</ele>
        <time>2024-01-30T12:45:06.395Z</time>
      </trkpt>
      <trkpt lat="43.78971" lon="5.31295">
        <ele>491.211042</ele>
        <time>2024-01-30T12:45:08.227Z</time>
      </trkpt>
      <trkpt lat="43.78949" lon="5.31287">
        <ele>488.299262</ele>
        <time>2024-01-30T12:45:13.029Z</time>
      </trkpt>
      <trkpt lat="43.78918" lon="5.31294">
        <ele>484.345627</ele>
        <time>2024-01-30T12:45:19.522Z</time>
      </trkpt>
      <trkpt lat="43.78906" lon="5.31294">
        <ele>482.81466</ele>
        <time>2024-01-30T12:45:22.055Z</time>
      </trkpt>
      <trkpt lat="43.7886" lon="5.31269">
        <ele>474.227376</ele>
        <time>2024-01-30T12:45:32.076Z</time>
      </trkpt>
      <trkpt lat="43.78786" lon="5.31248">
        <ele>460.379507</ele>
        <time>2024-01-30T12:45:47.000Z</time>
      </trkpt>
      <trkpt lat="43.78744" lon="5.3125">
        <ele>452.587697</ele>
        <time>2024-01-30T12:45:55.277Z</time>
      </trkpt>
      <trkpt lat="43.78734" lon="5.31269">
        <ele>449.552361</ele>
        <time>2024-01-30T12:45:58.494Z</time>
      </trkpt>
      <trkpt lat="43.78728" lon="5.31299">
        <ele>444.925782</ele>
        <time>2024-01-30T12:46:02.883Z</time>
      </trkpt>
      <trkpt lat="43.7872" lon="5.31312">
        <ele>442.238908</ele>
        <time>2024-01-30T12:46:05.378Z</time>
      </trkpt>
      <trkpt lat="43.78693" lon="5.31327">
        <ele>436.184086</ele>
        <time>2024-01-30T12:46:11.005Z</time>
      </trkpt>
      <trkpt lat="43.78662" lon="5.31358">
        <ele>428.213784</ele>
        <time>2024-01-30T12:46:18.404Z</time>
      </trkpt>
      <trkpt lat="43.78657" lon="5.31369">
        <ele>426.341691</ele>
        <time>2024-01-30T12:46:20.146Z</time>
      </trkpt>
      <trkpt lat="43.78658" lon="5.3138">
        <ele>424.563447</ele>
        <time>2024-01-30T12:46:21.798Z</time>
      </trkpt>
      <trkpt lat="43.78665" lon="5.31389">
        <ele>422.615807</ele>
        <time>2024-01-30T12:46:23.622Z</time>
      </trkpt>
      <trkpt lat="43.78664" lon="5.31395">
        <ele>421.635637</ele>
        <time>2024-01-30T12:46:24.546Z</time>
      </trkpt>
      <trkpt lat="43.78653" lon="5.31405">
        <ele>418.867449</ele>
        <time>2024-01-30T12:46:27.143Z</time>
      </trkpt>
      <trkpt lat="43.78645" lon="5.31416">
        <ele>416.576709</ele>
        <time>2024-01-30T12:46:29.283Z</time>
      </trkpt>
      <trkpt lat="43.78628" lon="5.31474">
        <ele>409.69266</ele>
        <time>2024-01-30T12:46:38.216Z</time>
      </trkpt>
      <trkpt lat="43.78632" lon="5.31501">
        <ele>407.976647</ele>
        <time>2024-01-30T12:46:42.229Z</time>
      </trkpt>
      <trkpt lat="43.78631" lon="5.31511">
        <ele>407.367004</ele>
        <time>2024-01-30T12:46:43.659Z</time>
      </trkpt>
      <trkpt lat="43.78595" lon="5.31523">
        <ele>404.199461</ele>
        <time>2024-01-30T12:46:51.423Z</time>
      </trkpt>
      <trkpt lat="43.78587" lon="5.31527">
        <ele>403.474545</ele>
        <time>2024-01-30T12:46:53.400Z</time>
      </trkpt>
      <trkpt lat="43.78582" lon="5.31535">
        <ele>402.797644</ele>
        <time>2024-01-30T12:46:55.155Z</time>
      </trkpt>
      <trkpt lat="43.78583" lon="5.31563">
        <ele>401.046232</ele>
        <time>2024-01-30T12:46:59.771Z</time>
      </trkpt>
      <trkpt lat="43.78608" lon="5.31623">
        <ele>396.724783</ele>
        <time>2024-01-30T12:47:12.896Z</time>
      </trkpt>
      <trkpt lat="43.78613" lon="5.31661">
        <ele>397.40104</ele>
        <time>2024-01-30T12:47:21.531Z</time>
      </trkpt>
      <trkpt lat="43.78614" lon="5.31678">
        <ele>398.410385</ele>
        <time>2024-01-30T12:47:26.518Z</time>
      </trkpt>
      <trkpt lat="43.7861" lon="5.31685">
        <ele>398.928426</ele>
        <time>2024-01-30T12:47:29.379Z</time>
      </trkpt>
      <trkpt lat="43.78609" lon="5.31686">
        <ele>399.024793</ele>
        <time>2024-01-30T12:47:29.990Z</time>
      </trkpt>
      <trkpt lat="43.78607" lon="5.31697">
        <ele>399.648647</ele>
        <time>2024-01-30T12:47:34.039Z</time>
      </trkpt>
      <trkpt lat="43.786" lon="5.3171">
        <ele>400.576205</ele>
        <time>2024-01-30T12:47:41.835Z</time>
      </trkpt>
      <trkpt lat="43.78607" lon="5.31737">
        <ele>402.230388</ele>
        <time>2024-01-30T12:47:54.380Z</time>
      </trkpt>
      <trkpt lat="43.78616" lon="5.318">
        <ele>405.844868</ele>
        <time>2024-01-30T12:48:31.494Z</time>
      </trkpt>
      <trkpt lat="43.78628" lon="5.31827">
        <ele>407.681199</ele>
        <time>2024-01-30T12:48:52.764Z</time>
      </trkpt>
      <trkpt lat="43.78637" lon="5.3186">
        <ele>409.694041</ele>
        <time>2024-01-30T12:49:19.464Z</time>
      </trkpt>
      <trkpt lat="43.78651" lon="5.31887">
        <ele>413.769487</ele>
        <time>2024-01-30T12:49:47.060Z</time>
      </trkpt>
      <trkpt lat="43.78683" lon="5.31921">
        <ele>421.61503</ele>
        <time>2024-01-30T12:50:33.189Z</time>
      </trkpt>
      <trkpt lat="43.78694" lon="5.31946">
        <ele>425.836412</ele>
        <time>2024-01-30T12:51:00.496Z</time>
      </trkpt>
      <trkpt lat="43.78695" lon="5.31961">
        <ele>428.032993</ele>
        <time>2024-01-30T12:51:14.890Z</time>
      </trkpt>
      <trkpt lat="43.78692" lon="5.31975">
        <ele>430.103974</ele>
        <time>2024-01-30T12:51:28.876Z</time>
      </trkpt>
      <trkpt lat="43.78693" lon="5.32002">
        <ele>433.919562</ele>
        <time>2024-01-30T12:51:56.119Z</time>
      </trkpt>
      <trkpt lat="43.787" lon="5.32035">
        <ele>438.751182</ele>
        <time>2024-01-30T12:52:31.657Z</time>
      </trkpt>
      <trkpt lat="43.78707" lon="5.32051">
        <ele>441.525383</ele>
        <time>2024-01-30T12:52:52.207Z</time>
      </trkpt>
      <trkpt lat="43.7871" lon="5.32066">
        <ele>443.746451</ele>
        <time>2024-01-30T12:53:08.702Z</time>
      </trkpt>
      <trkpt lat="43.78719" lon="5.32078">
        <ele>446.228815</ele>
        <time>2024-01-30T12:53:26.284Z</time>
      </trkpt>
      <trkpt lat="43.78723" lon="5.32092">
        <ele>448.79686</ele>
        <time>2024-01-30T12:53:42.244Z</time>
      </trkpt>
      <trkpt lat="43.78746" lon="5.32115">
        <ele>455.44986</ele>
        <time>2024-01-30T12:54:23.627Z</time>
      </trkpt>
      <trkpt lat="43.7875" lon="5.32124">
        <ele>457.353986</ele>
        <time>2024-01-30T12:54:35.588Z</time>
      </trkpt>
      <trkpt lat="43.78757" lon="5.32162">
        <ele>463.931519</ele>
        <time>2024-01-30T12:55:16.430Z</time>
      </trkpt>
      <trkpt lat="43.78765" lon="5.32222">
        <ele>474.327272</ele>
        <time>2024-01-30T12:56:20.979Z</time>
      </trkpt>
      <trkpt lat="43.78774" lon="5.32248">
        <ele>479.229083</ele>
        <time>2024-01-30T12:56:51.525Z</time>
      </trkpt>
      <trkpt lat="43.78771" lon="5.32263">
        <ele>481.892983</ele>
        <time>2024-01-30T12:57:08.051Z</time>
      </trkpt>
      <trkpt lat="43.78761" lon="5.32282">
        <ele>485.761976</ele>
        <time>2024-01-30T12:57:31.998Z</time>
      </trkpt>
      <trkpt lat="43.78755" lon="5.32303">
        <ele>489.442701</ele>
        <time>2024-01-30T12:57:56.688Z</time>
      </trkpt>
      <trkpt lat="43.78737" lon="5.32345">
        <ele>496.382394</ele>
        <time>2024-01-30T12:58:48.041Z</time>
      </trkpt>
      <trkpt lat="43.78669" lon="5.3246">
        <ele>517.523556</ele>
        <time>2024-01-30T13:01:10.795Z</time>
      </trkpt>
      <trkpt lat="43.78648" lon="5.32506">
        <ele>524.415305</ele>
        <time>2024-01-30T13:01:55.502Z</time>
      </trkpt>
      <trkpt lat="43.78643" lon="5.32522">
        <ele>525.654523</ele>
        <time>2024-01-30T13:02:08.132Z</time>
      </trkpt>
      <trkpt lat="43.78641" lon="5.3252">
        <ele>525.937346</ele>
        <time>2024-01-30T13:02:10.836Z</time>
      </trkpt>
      <trkpt lat="43.78637" lon="5.325">
        <ele>527.435018</ele>
        <time>2024-01-30T13:02:24.966Z</time>
      </trkpt>
      <trkpt lat="43.78639" lon="5.32473">
        <ele>529.412947</ele>
        <time>2024-01-30T13:02:42.466Z</time>
      </trkpt>
      <trkpt lat="43.78633" lon="5.32358">
        <ele>537.782502</ele>
        <time>2024-01-30T13:03:43.176Z</time>
      </trkpt>
      <trkpt lat="43.78621" lon="5.32297">
        <ele>542.172212</ele>
        <time>2024-01-30T13:04:12.835Z</time>
      </trkpt>
      <trkpt lat="43.78612" lon="5.32274">
        <ele>543.54812</ele>
        <time>2024-01-30T13:04:25.364Z</time>
      </trkpt>
      <trkpt lat="43.78597" lon="5.32259">
        <ele>544.874084</ele>
        <time>2024-01-30T13:04:36.947Z</time>
      </trkpt>
      <trkpt lat="43.78582" lon="5.3225">
        <ele>546.060494</ele>
        <time>2024-01-30T13:04:48.058Z</time>
      </trkpt>
      <trkpt lat="43.78563" lon="5.32246">
        <ele>547.451974</ele>
        <time>2024-01-30T13:05:00.978Z</time>
      </trkpt>
      <trkpt lat="43.78546" lon="5.32248">
        <ele>548.656604</ele>
        <time>2024-01-30T13:05:12.987Z</time>
      </trkpt>
      <trkpt lat="43.78497" lon="5.32267">
        <ele>552.297157</ele>
        <time>2024-01-30T13:05:48.034Z</time>
      </trkpt>
      <trkpt lat="43.78479" lon="5.32268">
        <ele>553.587695</ele>
        <time>2024-01-30T13:06:00.959Z</time>
      </trkpt>
      <trkpt lat="43.78465" lon="5.3225">
        <ele>554.970782</ele>
        <time>2024-01-30T13:06:13.557Z</time>
      </trkpt>
      <trkpt lat="43.78449" lon="5.32242">
        <ele>556.138602</ele>
        <time>2024-01-30T13:06:25.363Z</time>
      </trkpt>
      <trkpt lat="43.78438" lon="5.32245">
        <ele>556.956102</ele>
        <time>2024-01-30T13:06:32.476Z</time>
      </trkpt>
      <trkpt lat="43.7843" lon="5.3224">
        <ele>557.569363</ele>
        <time>2024-01-30T13:06:38.150Z</time>
      </trkpt>
      <trkpt lat="43.7841" lon="5.32239">
        <ele>558.990308</ele>
        <time>2024-01-30T13:06:51.701Z</time>
      </trkpt>
      <trkpt lat="43.78384" lon="5.32257">
        <ele>561.02813</ele>
        <time>2024-01-30T13:07:10.718Z</time>
      </trkpt>
      <trkpt lat="43.78362" lon="5.32281">
        <ele>563.051485</ele>
        <time>2024-01-30T13:07:29.356Z</time>
      </trkpt>
      <trkpt lat="43.78337" lon="5.32296">
        <ele>564.948308</ele>
        <time>2024-01-30T13:07:46.670Z</time>
      </trkpt>
      <trkpt lat="43.78327" lon="5.32305">
        <ele>565.800948</ele>
        <time>2024-01-30T13:07:54.822Z</time>
      </trkpt>
      <trkpt lat="43.78321" lon="5.32303">
        <ele>566.251337</ele>
        <time>2024-01-30T13:07:59.195Z</time>
      </trkpt>
      <trkpt lat="43.78314" lon="5.32305">
        <ele>566.765934</ele>
        <time>2024-01-30T13:08:04.175Z</time>
      </trkpt>
      <trkpt lat="43.78308" lon="5.32312">
        <ele>567.315387</ele>
        <time>2024-01-30T13:08:09.418Z</time>
      </trkpt>
      <trkpt lat="43.78305" lon="5.32322">
        <ele>567.972308</ele>
        <time>2024-01-30T13:08:15.189Z</time>
      </trkpt>
      <trkpt lat="43.78305" lon="5.32332">
        <ele>568.538359</ele>
        <time>2024-01-30T13:08:20.242Z</time>
      </trkpt>
      <trkpt lat="43.78309" lon="5.32339">
        <ele>569.114605</ele>
        <time>2024-01-30T13:08:25.335Z</time>
      </trkpt>
      <trkpt lat="43.7832" lon="5.32343">
        <ele>570.006951</ele>
        <time>2024-01-30T13:08:32.854Z</time>
      </trkpt>
      <trkpt lat="43.78331" lon="5.32356">
        <ele>571.215082</ele>
        <time>2024-01-30T13:08:43.020Z</time>
      </trkpt>
      <trkpt lat="43.78334" lon="5.32364">
        <ele>571.757747</ele>
        <time>2024-01-30T13:08:47.607Z</time>
      </trkpt>
      <trkpt lat="43.78342" lon="5.32415">
        <ele>574.835939</ele>
        <time>2024-01-30T13:09:13.289Z</time>
      </trkpt>
      <trkpt lat="43.78361" lon="5.3245">
        <ele>577.483494</ele>
        <time>2024-01-30T13:09:36.422Z</time>
      </trkpt>
      <trkpt lat="43.78373" lon="5.32465">
        <ele>578.768391</ele>
        <time>2024-01-30T13:09:48.414Z</time>
      </trkpt>
      <trkpt lat="43.78376" lon="5.32484">
        <ele>579.967056</ele>
        <time>2024-01-30T13:10:00.010Z</time>
      </trkpt>
      <trkpt lat="43.78385" lon="5.32502">
        <ele>581.266209</ele>
        <time>2024-01-30T13:10:12.914Z</time>
      </trkpt>
      <trkpt lat="43.78386" lon="5.32503">
        <ele>581.343627</ele>
        <time>2024-01-30T13:10:13.729Z</time>
      </trkpt>
      <trkpt lat="43.78387" lon="5.32511">
        <ele>581.834592</ele>
        <time>2024-01-30T13:10:18.826Z</time>
      </trkpt>
      <trkpt lat="43.78388" lon="5.32522">
        <ele>582.377159</ele>
        <time>2024-01-30T13:10:25.636Z</time>
      </trkpt>
      <trkpt lat="43.78381" lon="5.32556">
        <ele>583.755861</ele>
        <time>2024-01-30T13:10:46.183Z</time>
      </trkpt>
      <trkpt lat="43.78379" lon="5.32601">
        <ele>585.598052</ele>
        <time>2024-01-30T13:11:11.171Z</time>
      </trkpt>
      <trkpt lat="43.78379" lon="5.32645">
        <ele>587.365305</ele>
        <time>2024-01-30T13:11:31.595Z</time>
      </trkpt>
      <trkpt lat="43.78384" lon="5.3271">
        <ele>589.981533</ele>
        <time>2024-01-30T13:11:56.410Z</time>
      </trkpt>
      <trkpt lat="43.78386" lon="5.32729">
        <ele>590.740402</ele>
        <time>2024-01-30T13:12:02.259Z</time>
      </trkpt>
      <trkpt lat="43.78393" lon="5.32742">
        <ele>591.404739</ele>
        <time>2024-01-30T13:12:06.888Z</time>
      </trkpt>
      <trkpt lat="43.78392" lon="5.32761">
        <ele>592.115177</ele>
        <time>2024-01-30T13:12:12.100Z</time>
      </trkpt>
      <trkpt lat="43.78394" lon="5.32767">
        <ele>592.047723</ele>
        <time>2024-01-30T13:12:13.748Z</time>
      </trkpt>
      <trkpt lat="43.78393" lon="5.32794">
        <ele>591.779995</ele>
        <time>2024-01-30T13:12:19.756Z</time>
      </trkpt>
      <trkpt lat="43.78401" lon="5.32808">
        <ele>591.601146</ele>
        <time>2024-01-30T13:12:23.701Z</time>
      </trkpt>
      <trkpt lat="43.78424" lon="5.32835">
        <ele>591.181976</ele>
        <time>2024-01-30T13:12:32.929Z</time>
      </trkpt>
      <trkpt lat="43.7843" lon="5.32853">
        <ele>590.985898</ele>
        <time>2024-01-30T13:12:37.171Z</time>
      </trkpt>
      <trkpt lat="43.78437" lon="5.32859">
        <ele>590.872728</ele>
        <time>2024-01-30T13:12:39.578Z</time>
      </trkpt>
      <trkpt lat="43.78461" lon="5.32899">
        <ele>590.355769</ele>
        <time>2024-01-30T13:12:49.992Z</time>
      </trkpt>
      <trkpt lat="43.78474" lon="5.32937">
        <ele>589.931796</ele>
        <time>2024-01-30T13:12:58.111Z</time>
      </trkpt>
      <trkpt lat="43.78476" lon="5.32968">
        <ele>589.587081</ele>
        <time>2024-01-30T13:13:03.665Z</time>
      </trkpt>
      <trkpt lat="43.78481" lon="5.33007">
        <ele>587.412738</ele>
        <time>2024-01-30T13:13:10.841Z</time>
      </trkpt>
      <trkpt lat="43.78493" lon="5.33024">
        <ele>586.145293</ele>
        <time>2024-01-30T13:13:14.884Z</time>
      </trkpt>
      <trkpt lat="43.78502" lon="5.33076">
        <ele>583.258458</ele>
        <time>2024-01-30T13:13:23.864Z</time>
      </trkpt>
      <trkpt lat="43.78507" lon="5.33088">
        <ele>582.502908</ele>
        <time>2024-01-30T13:13:26.204Z</time>
      </trkpt>
      <trkpt lat="43.78512" lon="5.33106">
        <ele>581.43977</ele>
        <time>2024-01-30T13:13:29.378Z</time>
      </trkpt>
      <trkpt lat="43.78518" lon="5.33139">
        <ele>579.59737</ele>
        <time>2024-01-30T13:13:34.900Z</time>
      </trkpt>
      <trkpt lat="43.78518" lon="5.3315">
        <ele>579.045149</ele>
        <time>2024-01-30T13:13:36.490Z</time>
      </trkpt>
      <trkpt lat="43.78515" lon="5.33169">
        <ele>577.982569</ele>
        <time>2024-01-30T13:13:39.596Z</time>
      </trkpt>
      <trkpt lat="43.78516" lon="5.33179">
        <ele>577.412535</ele>
        <time>2024-01-30T13:13:41.251Z</time>
      </trkpt>
      <trkpt lat="43.78511" lon="5.33188">
        <ele>576.840537</ele>
        <time>2024-01-30T13:13:42.895Z</time>
      </trkpt>
      <trkpt lat="43.7851" lon="5.332">
        <ele>576.113395</ele>
        <time>2024-01-30T13:13:44.778Z</time>
      </trkpt>
      <trkpt lat="43.78504" lon="5.33226">
        <ele>572.937014</ele>
        <time>2024-01-30T13:13:48.869Z</time>
      </trkpt>
      <trkpt lat="43.78504" lon="5.33248">
        <ele>570.4113</ele>
        <time>2024-01-30T13:13:52.081Z</time>
      </trkpt>
      <trkpt lat="43.78499" lon="5.33271">
        <ele>567.593795</ele>
        <time>2024-01-30T13:13:55.613Z</time>
      </trkpt>
      <trkpt lat="43.78495" lon="5.33281">
        <ele>566.204277</ele>
        <time>2024-01-30T13:13:57.333Z</time>
      </trkpt>
      <trkpt lat="43.7849" lon="5.33285">
        <ele>565.308272</ele>
        <time>2024-01-30T13:13:58.451Z</time>
      </trkpt>
      <trkpt lat="43.7849" lon="5.33299">
        <ele>563.644777</ele>
        <time>2024-01-30T13:14:00.485Z</time>
      </trkpt>
      <trkpt lat="43.78487" lon="5.33302">
        <ele>563.072628</ele>
        <time>2024-01-30T13:14:01.188Z</time>
      </trkpt>
      <trkpt lat="43.78474" lon="5.33304">
        <ele>560.966606</ele>
        <time>2024-01-30T13:14:03.778Z</time>
      </trkpt>
      <trkpt lat="43.78458" lon="5.33298">
        <ele>558.204314</ele>
        <time>2024-01-30T13:14:07.154Z</time>
      </trkpt>
      <trkpt lat="43.78452" lon="5.33306">
        <ele>556.820304</ele>
        <time>2024-01-30T13:14:08.838Z</time>
      </trkpt>
      <trkpt lat="43.78439" lon="5.33305">
        <ele>554.78305</ele>
        <time>2024-01-30T13:14:11.321Z</time>
      </trkpt>
      <trkpt lat="43.78428" lon="5.33316">
        <ele>552.598958</ele>
        <time>2024-01-30T13:14:13.976Z</time>
      </trkpt>
      <trkpt lat="43.7841" lon="5.33326">
        <ele>549.421128</ele>
        <time>2024-01-30T13:14:17.889Z</time>
      </trkpt>
      <trkpt lat="43.78396" lon="5.33347">
        <ele>546.435586</ele>
        <time>2024-01-30T13:14:21.832Z</time>
      </trkpt>
      <trkpt lat="43.78389" lon="5.33346">
        <ele>545.461818</ele>
        <time>2024-01-30T13:14:23.371Z</time>
      </trkpt>
      <trkpt lat="43.78384" lon="5.3335">
        <ele>544.726766</ele>
        <time>2024-01-30T13:14:24.520Z</time>
      </trkpt>
      <trkpt lat="43.78377" lon="5.33344">
        <ele>543.711203</ele>
        <time>2024-01-30T13:14:26.124Z</time>
      </trkpt>
      <trkpt lat="43.78365" lon="5.33345">
        <ele>542.243732</ele>
        <time>2024-01-30T13:14:28.437Z</time>
      </trkpt>
      <trkpt lat="43.78356" lon="5.33342">
        <ele>541.058542</ele>
        <time>2024-01-30T13:14:30.327Z</time>
      </trkpt>
      <trkpt lat="43.78336" lon="5.33331">
        <ele>538.28865</ele>
        <time>2024-01-30T13:14:34.731Z</time>
      </trkpt>
      <trkpt lat="43.78315" lon="5.3333">
        <ele>535.600986</ele>
        <time>2024-01-30T13:14:39.075Z</time>
      </trkpt>
      <trkpt lat="43.78303" lon="5.3333">
        <ele>534.098699</ele>
        <time>2024-01-30T13:14:41.496Z</time>
      </trkpt>
      <trkpt lat="43.78283" lon="5.33332">
        <ele>531.519947</ele>
        <time>2024-01-30T13:14:45.748Z</time>
      </trkpt>
      <trkpt lat="43.78274" lon="5.33322">
        <ele>530.064586</ele>
        <time>2024-01-30T13:14:48.170Z</time>
      </trkpt>
      <trkpt lat="43.78269" lon="5.33321">
        <ele>529.479396</ele>
        <time>2024-01-30T13:14:49.144Z</time>
      </trkpt>
      <trkpt lat="43.78258" lon="5.33328">
        <ele>527.945238</ele>
        <time>2024-01-30T13:14:51.752Z</time>
      </trkpt>
      <trkpt lat="43.78238" lon="5.33329">
        <ele>525.344601</ele>
        <time>2024-01-30T13:14:56.217Z</time>
      </trkpt>
      <trkpt lat="43.78219" lon="5.33324">
        <ele>523.627649</ele>
        <time>2024-01-30T13:15:00.496Z</time>
      </trkpt>
      <trkpt lat="43.7819" lon="5.3333">
        <ele>521.685293</ele>
        <time>2024-01-30T13:15:07.474Z</time>
      </trkpt>
      <trkpt lat="43.78182" lon="5.33319">
        <ele>520.936659</ele>
        <time>2024-01-30T13:15:10.245Z</time>
      </trkpt>
      <trkpt lat="43.78176" lon="5.33317">
        <ele>520.532648</ele>
        <time>2024-01-30T13:15:11.734Z</time>
      </trkpt>
      <trkpt lat="43.78162" lon="5.3332">
        <ele>519.622086</ele>
        <time>2024-01-30T13:15:15.098Z</time>
      </trkpt>
      <trkpt lat="43.78153" lon="5.33314">
        <ele>518.947899</ele>
        <time>2024-01-30T13:15:17.655Z</time>
      </trkpt>
      <trkpt lat="43.78105" lon="5.33342">
        <ele>515.556197</ele>
        <time>2024-01-30T13:15:30.114Z</time>
      </trkpt>
      <trkpt lat="43.78093" lon="5.33366">
        <ele>514.171591</ele>
        <time>2024-01-30T13:15:34.959Z</time>
      </trkpt>
      <trkpt lat="43.78083" lon="5.33367">
        <ele>513.532858</ele>
        <time>2024-01-30T13:15:37.192Z</time>
      </trkpt>
      <trkpt lat="43.78065" lon="5.33363">
        <ele>512.16562</ele>
        <time>2024-01-30T13:15:41.146Z</time>
      </trkpt>
      <trkpt lat="43.78059" lon="5.33364">
        <ele>511.280052</ele>
        <time>2024-01-30T13:15:42.639Z</time>
      </trkpt>
      <trkpt lat="43.78056" lon="5.3337">
        <ele>510.575122</ele>
        <time>2024-01-30T13:15:43.822Z</time>
      </trkpt>
      <trkpt lat="43.78051" lon="5.33373">
        <ele>509.850048</ele>
        <time>2024-01-30T13:15:45.017Z</time>
      </trkpt>
      <trkpt lat="43.78012" lon="5.33366">
        <ele>504.73474</ele>
        <time>2024-01-30T13:15:53.293Z</time>
      </trkpt>
      <trkpt lat="43.77969" lon="5.33371">
        <ele>498.963292</ele>
        <time>2024-01-30T13:16:02.389Z</time>
      </trkpt>
      <trkpt lat="43.77961" lon="5.33375">
        <ele>497.879697</ele>
        <time>2024-01-30T13:16:04.056Z</time>
      </trkpt>
      <trkpt lat="43.77952" lon="5.33385">
        <ele>496.350768</ele>
        <time>2024-01-30T13:16:06.419Z</time>
      </trkpt>
      <trkpt lat="43.77924" lon="5.33395">
        <ele>492.491545</ele>
        <time>2024-01-30T13:16:12.298Z</time>
      </trkpt>
      <trkpt lat="43.77919" lon="5.33401">
        <ele>491.649845</ele>
        <time>2024-01-30T13:16:13.567Z</time>
      </trkpt>
      <trkpt lat="43.77906" lon="5.33406">
        <ele>489.802902</ele>
        <time>2024-01-30T13:16:16.340Z</time>
      </trkpt>
      <trkpt lat="43.77895" lon="5.33414">
        <ele>487.637176</ele>
        <time>2024-01-30T13:16:18.812Z</time>
      </trkpt>
      <trkpt lat="43.77879" lon="5.33419">
        <ele>483.823119</ele>
        <time>2024-01-30T13:16:22.003Z</time>
      </trkpt>
      <trkpt lat="43.77857" lon="5.33438">
        <ele>477.766034</ele>
        <time>2024-01-30T13:16:27.007Z</time>
      </trkpt>
      <trkpt lat="43.77824" lon="5.33453">
        <ele>469.548945</ele>
        <time>2024-01-30T13:16:33.773Z</time>
      </trkpt>
      <trkpt lat="43.77809" lon="5.33463">
        <ele>465.777154</ele>
        <time>2024-01-30T13:16:36.898Z</time>
      </trkpt>
      <trkpt lat="43.77778" lon="5.33472">
        <ele>458.175479</ele>
        <time>2024-01-30T13:16:43.182Z</time>
      </trkpt>
      <trkpt lat="43.77748" lon="5.33493">
        <ele>450.397507</ele>
        <time>2024-01-30T13:16:49.626Z</time>
      </trkpt>
      <trkpt lat="43.77736" lon="5.33497">
        <ele>447.501747</ele>
        <time>2024-01-30T13:16:52.039Z</time>
      </trkpt>
      <trkpt lat="43.77728" lon="5.33506">
        <ele>444.846573</ele>
        <time>2024-01-30T13:16:54.114Z</time>
      </trkpt>
      <trkpt lat="43.77728" lon="5.33519">
        <ele>442.566457</ele>
        <time>2024-01-30T13:16:55.852Z</time>
      </trkpt>
      <trkpt lat="43.77722" lon="5.33529">
        <ele>440.081233</ele>
        <time>2024-01-30T13:16:57.732Z</time>
      </trkpt>
      <trkpt lat="43.77664" lon="5.33577">
        <ele>422.669026</ele>
        <time>2024-01-30T13:17:10.952Z</time>
      </trkpt>
      <trkpt lat="43.77608" lon="5.33628">
        <ele>405.562822</ele>
        <time>2024-01-30T13:17:23.901Z</time>
      </trkpt>
      <trkpt lat="43.77554" lon="5.33661">
        <ele>392.781107</ele>
        <time>2024-01-30T13:17:35.391Z</time>
      </trkpt>
      <trkpt lat="43.77538" lon="5.33693">
        <ele>387.335108</ele>
        <time>2024-01-30T13:17:40.867Z</time>
      </trkpt>
      <trkpt lat="43.77519" lon="5.33708">
        <ele>383.140744</ele>
        <time>2024-01-30T13:17:45.123Z</time>
      </trkpt>
      <trkpt lat="43.77507" lon="5.33712">
        <ele>380.650666</ele>
        <time>2024-01-30T13:17:47.660Z</time>
      </trkpt>
      <trkpt lat="43.77488" lon="5.33712">
        <ele>377.059956</ele>
        <time>2024-01-30T13:17:51.325Z</time>
      </trkpt>
      <trkpt lat="43.77462" lon="5.33726">
        <ele>371.606175</ele>
        <time>2024-01-30T13:17:56.938Z</time>
      </trkpt>
      <trkpt lat="43.77455" lon="5.33737">
        <ele>369.581416</ele>
        <time>2024-01-30T13:17:59.012Z</time>
      </trkpt>
      <trkpt lat="43.77411" lon="5.33854">
        <ele>352.618925</ele>
        <time>2024-01-30T13:18:18.034Z</time>
      </trkpt>
      <trkpt lat="43.77383" lon="5.33862">
        <ele>347.6544</ele>
        <time>2024-01-30T13:18:23.734Z</time>
      </trkpt>
      <trkpt lat="43.77303" lon="5.33855">
        <ele>333.582247</ele>
        <time>2024-01-30T13:18:39.744Z</time>
      </trkpt>
      <trkpt lat="43.77247" lon="5.33858">
        <ele>322.918491</ele>
        <time>2024-01-30T13:18:50.669Z</time>
      </trkpt>
      <trkpt lat="43.77216" lon="5.33884">
        <ele>315.969607</ele>
        <time>2024-01-30T13:18:57.761Z</time>
      </trkpt>
      <trkpt lat="43.77187" lon="5.33905">
        <ele>309.674791</ele>
        <time>2024-01-30T13:19:04.213Z</time>
      </trkpt>
      <trkpt lat="43.77169" lon="5.33908">
        <ele>306.207829</ele>
        <time>2024-01-30T13:19:07.802Z</time>
      </trkpt>
      <trkpt lat="43.77152" lon="5.3392">
        <ele>302.593934</ele>
        <time>2024-01-30T13:19:11.534Z</time>
      </trkpt>
      <trkpt lat="43.77135" lon="5.33937">
        <ele>298.824167</ele>
        <time>2024-01-30T13:19:15.631Z</time>
      </trkpt>
      <trkpt lat="43.77127" lon="5.33951">
        <ele>296.659141</ele>
        <time>2024-01-30T13:19:18.249Z</time>
      </trkpt>
      <trkpt lat="43.77119" lon="5.33957">
        <ele>295.224385</ele>
        <time>2024-01-30T13:19:19.992Z</time>
      </trkpt>
      <trkpt lat="43.77114" lon="5.33973">
        <ele>293.090719</ele>
        <time>2024-01-30T13:19:22.589Z</time>
      </trkpt>
      <trkpt lat="43.771" lon="5.33991">
        <ele>289.935202</ele>
        <time>2024-01-30T13:19:26.419Z</time>
      </trkpt>
      <trkpt lat="43.7709" lon="5.34015">
        <ele>286.628697</ele>
        <time>2024-01-30T13:19:30.454Z</time>
      </trkpt>
      <trkpt lat="43.77071" lon="5.3402">
        <ele>283.507205</ele>
        <time>2024-01-30T13:19:34.257Z</time>
      </trkpt>
      <trkpt lat="43.77064" lon="5.34029">
        <ele>281.965358</ele>
        <time>2024-01-30T13:19:36.154Z</time>
      </trkpt>
      <trkpt lat="43.77061" lon="5.34027">
        <ele>281.473243</ele>
        <time>2024-01-30T13:19:36.756Z</time>
      </trkpt>
      <trkpt lat="43.77039" lon="5.34048">
        <ele>277.093328</ele>
        <time>2024-01-30T13:19:42.128Z</time>
      </trkpt>
      <trkpt lat="43.77032" lon="5.34069">
        <ele>274.276986</ele>
        <time>2024-01-30T13:19:45.584Z</time>
      </trkpt>
      <trkpt lat="43.77029" lon="5.34086">
        <ele>272.274398</ele>
        <time>2024-01-30T13:19:48.049Z</time>
      </trkpt>
      <trkpt lat="43.77029" lon="5.34145">
        <ele>266.326808</ele>
        <time>2024-01-30T13:19:56.764Z</time>
      </trkpt>
      <trkpt lat="43.77032" lon="5.3418">
        <ele>263.069531</ele>
        <time>2024-01-30T13:20:01.885Z</time>
      </trkpt>
      <trkpt lat="43.77024" lon="5.34211">
        <ele>259.995078</ele>
        <time>2024-01-30T13:20:06.719Z</time>
      </trkpt>
      <trkpt lat="43.77016" lon="5.34232">
        <ele>257.809844</ele>
        <time>2024-01-30T13:20:10.166Z</time>
      </trkpt>
      <trkpt lat="43.76964" lon="5.34358">
        <ele>245.725276</ele>
        <time>2024-01-30T13:20:32.075Z</time>
      </trkpt>
      <trkpt lat="43.76948" lon="5.34405">
        <ele>243.377153</ele>
        <time>2024-01-30T13:20:40.852Z</time>
      </trkpt>
      <trkpt lat="43.7694" lon="5.34449">
        <ele>241.345255</ele>
        <time>2024-01-30T13:20:48.817Z</time>
      </trkpt>
      <trkpt lat="43.76927" lon="5.34488">
        <ele>239.448552</ele>
        <time>2024-01-30T13:20:56.409Z</time>
      </trkpt>
      <trkpt lat="43.76925" lon="5.34509">
        <ele>238.466759</ele>
        <time>2024-01-30T13:21:00.358Z</time>
      </trkpt>
      <trkpt lat="43.76917" lon="5.34543">
        <ele>236.879795</ele>
        <time>2024-01-30T13:21:06.473Z</time>
      </trkpt>
      <trkpt lat="43.76913" lon="5.34548">
        <ele>236.490593</ele>
        <time>2024-01-30T13:21:08.024Z</time>
      </trkpt>
      <trkpt lat="43.76892" lon="5.34567">
        <ele>234.960307</ele>
        <time>2024-01-30T13:21:13.947Z</time>
      </trkpt>
      <trkpt lat="43.76881" lon="5.34587">
        <ele>233.84325</ele>
        <time>2024-01-30T13:21:18.374Z</time>
      </trkpt>
      <trkpt lat="43.769" lon="5.34661">
        <ele>230.268882</ele>
        <time>2024-01-30T13:21:26.520Z</time>
      </trkpt>
      <trkpt lat="43.76921" lon="5.34712">
        <ele>227.581246</ele>
        <time>2024-01-30T13:21:32.443Z</time>
      </trkpt>
      <trkpt lat="43.76923" lon="5.34735">
        <ele>226.507691</ele>
        <time>2024-01-30T13:21:34.711Z</time>
      </trkpt>
      <trkpt lat="43.76914" lon="5.34828">
        <ele>220.908096</ele>
        <time>2024-01-30T13:21:43.281Z</time>
      </trkpt>
      <trkpt lat="43.76892" lon="5.34903">
        <ele>215.097428</ele>
        <time>2024-01-30T13:21:50.599Z</time>
      </trkpt>
      <trkpt lat="43.76865" lon="5.35012">
        <ele>206.899872</ele>
        <time>2024-01-30T13:22:01.157Z</time>
      </trkpt>
      <trkpt lat="43.7684" lon="5.35107">
        <ele>203.318331</ele>
        <time>2024-01-30T13:22:10.868Z</time>
      </trkpt>
      <trkpt lat="43.76825" lon="5.35162">
        <ele>201.248323</ele>
        <time>2024-01-30T13:22:16.942Z</time>
      </trkpt>
      <trkpt lat="43.76823" lon="5.3517">
        <ele>200.96499</ele>
        <time>2024-01-30T13:22:17.772Z</time>
      </trkpt>
      <trkpt lat="43.768" lon="5.35249">
        <ele>198.135322</ele>
        <time>2024-01-30T13:22:26.979Z</time>
      </trkpt>
      <trkpt lat="43.76701" lon="5.35509">
        <ele>201.652601</ele>
        <time>2024-01-30T13:23:31.145Z</time>
      </trkpt>
      <trkpt lat="43.76675" lon="5.35572">
        <ele>202.70178</ele>
        <time>2024-01-30T13:23:47.746Z</time>
      </trkpt>
      <trkpt lat="43.76664" lon="5.35605">
        <ele>203.234675</ele>
        <time>2024-01-30T13:23:55.600Z</time>
      </trkpt>
      <trkpt lat="43.76656" lon="5.35641">
        <ele>203.780598</ele>
        <time>2024-01-30T13:24:02.905Z</time>
      </trkpt>
      <trkpt lat="43.76623" lon="5.35852">
        <ele>206.078674</ele>
        <time>2024-01-30T13:24:44.017Z</time>
      </trkpt>
      <trkpt lat="43.76622" lon="5.35896">
        <ele>206.491179</ele>
        <time>2024-01-30T13:24:51.369Z</time>
      </trkpt>
      <trkpt lat="43.76627" lon="5.35939">
        <ele>206.897412</ele>
        <time>2024-01-30T13:24:58.661Z</time>
      </trkpt>
      <trkpt lat="43.7664" lon="5.36004">
        <ele>207.961907</ele>
        <time>2024-01-30T13:25:11.086Z</time>
      </trkpt>
      <trkpt lat="43.76626" lon="5.36009">
        <ele>208.281769</ele>
        <time>2024-01-30T13:25:15.274Z</time>
      </trkpt>
      <trkpt lat="43.76621" lon="5.36012">
        <ele>208.398831</ele>
        <time>2024-01-30T13:25:16.720Z</time>
      </trkpt>
      <trkpt lat="43.76605" lon="5.36041">
        <ele>208.986219</ele>
        <time>2024-01-30T13:25:25.438Z</time>
      </trkpt>
      <trkpt lat="43.76585" lon="5.36013">
        <ele>209.621113</ele>
        <time>2024-01-30T13:25:38.413Z</time>
      </trkpt>
      <trkpt lat="43.76581" lon="5.36011">
        <ele>209.71317</ele>
        <time>2024-01-30T13:25:40.420Z</time>
      </trkpt>
      <trkpt lat="43.76577" lon="5.36013">
        <ele>209.814307</ele>
        <time>2024-01-30T13:25:42.560Z</time>
      </trkpt>
      <trkpt lat="43.76573" lon="5.36018">
        <ele>209.926488</ele>
        <time>2024-01-30T13:25:44.855Z</time>
      </trkpt>
      <trkpt lat="43.7656" lon="5.3602">
        <ele>210.208284</ele>
        <time>2024-01-30T13:25:51.055Z</time>
      </trkpt>
      <trkpt lat="43.76508" lon="5.36021">
        <ele>211.475268</ele>
        <time>2024-01-30T13:26:16.469Z</time>
      </trkpt>
      <trkpt lat="43.76488" lon="5.36047">
        <ele>212.237985</ele>
        <time>2024-01-30T13:26:29.548Z</time>
      </trkpt>
      <trkpt lat="43.76466" lon="5.36101">
        <ele>213.463532</ele>
        <time>2024-01-30T13:26:49.815Z</time>
      </trkpt>
      <trkpt lat="43.76457" lon="5.36118">
        <ele>213.895555</ele>
        <time>2024-01-30T13:26:57.051Z</time>
      </trkpt>
      <trkpt lat="43.76437" lon="5.36141">
        <ele>214.592958</ele>
        <time>2024-01-30T13:27:08.162Z</time>
      </trkpt>
      <trkpt lat="43.76431" lon="5.36148">
        <ele>214.817805</ele>
        <time>2024-01-30T13:27:11.775Z</time>
      </trkpt>
      <trkpt lat="43.76425" lon="5.36161">
        <ele>215.126654</ele>
        <time>2024-01-30T13:27:15.818Z</time>
      </trkpt>
      <trkpt lat="43.76431" lon="5.36197">
        <ele>215.853354</ele>
        <time>2024-01-30T13:27:25.628Z</time>
      </trkpt>
      <trkpt lat="43.7643" lon="5.36231">
        <ele>216.417363</ele>
        <time>2024-01-30T13:27:34.567Z</time>
      </trkpt>
      <trkpt lat="43.7642" lon="5.36263">
        <ele>217.005649</ele>
        <time>2024-01-30T13:27:44.218Z</time>
      </trkpt>
      <trkpt lat="43.76415" lon="5.36274">
        <ele>217.218348</ele>
        <time>2024-01-30T13:27:47.651Z</time>
      </trkpt>
      <trkpt lat="43.76411" lon="5.36289">
        <ele>217.491335</ele>
        <time>2024-01-30T13:27:52.083Z</time>
      </trkpt>
      <trkpt lat="43.76424" lon="5.36295">
        <ele>217.812761</ele>
        <time>2024-01-30T13:27:56.641Z</time>
      </trkpt>
      <trkpt lat="43.76425" lon="5.36296">
        <ele>217.844554</ele>
        <time>2024-01-30T13:27:57.066Z</time>
      </trkpt>
      <trkpt lat="43.76426" lon="5.36297">
        <ele>217.865699</ele>
        <time>2024-01-30T13:27:57.373Z</time>
      </trkpt>
      <trkpt lat="43.76437" lon="5.36309">
        <ele>218.183941</ele>
        <time>2024-01-30T13:28:01.685Z</time>
      </trkpt>
      <trkpt lat="43.76441" lon="5.36321">
        <ele>218.402259</ele>
        <time>2024-01-30T13:28:04.623Z</time>
      </trkpt>
      <trkpt lat="43.76451" lon="5.36366">
        <ele>219.21001</ele>
        <time>2024-01-30T13:28:15.048Z</time>
      </trkpt>
      <trkpt lat="43.76456" lon="5.36402">
        <ele>219.820629</ele>
        <time>2024-01-30T13:28:22.573Z</time>
      </trkpt>
      <trkpt lat="43.76457" lon="5.36408">
        <ele>219.923916</ele>
        <time>2024-01-30T13:28:23.733Z</time>
      </trkpt>
      <trkpt lat="43.76472" lon="5.36446">
        <ele>220.991448</ele>
        <time>2024-01-30T13:28:32.927Z</time>
      </trkpt>
      <trkpt lat="43.76473" lon="5.36448">
        <ele>221.051551</ele>
        <time>2024-01-30T13:28:33.400Z</time>
      </trkpt>
      <trkpt lat="43.765" lon="5.3651">
        <ele>222.899873</ele>
        <time>2024-01-30T13:28:51.059Z</time>
      </trkpt>
      <trkpt lat="43.76506" lon="5.36524">
        <ele>223.328805</ele>
        <time>2024-01-30T13:28:56.039Z</time>
      </trkpt>
      <trkpt lat="43.76508" lon="5.36531">
        <ele>223.517147</ele>
        <time>2024-01-30T13:28:58.288Z</time>
      </trkpt>
      <trkpt lat="43.76503" lon="5.36539">
        <ele>223.78892</ele>
        <time>2024-01-30T13:29:01.392Z</time>
      </trkpt>
      <trkpt lat="43.76504" lon="5.36552">
        <ele>224.119144</ele>
        <time>2024-01-30T13:29:05.186Z</time>
      </trkpt>
      <trkpt lat="43.76507" lon="5.36557">
        <ele>224.287638</ele>
        <time>2024-01-30T13:29:07.234Z</time>
      </trkpt>
      <trkpt lat="43.7651" lon="5.36559">
        <ele>224.379714</ele>
        <time>2024-01-30T13:29:08.404Z</time>
      </trkpt>
      <trkpt lat="43.76518" lon="5.36559">
        <ele>224.665777</ele>
        <time>2024-01-30T13:29:12.183Z</time>
      </trkpt>
      <trkpt lat="43.76521" lon="5.36556">
        <ele>224.819841</ele>
        <time>2024-01-30T13:29:14.118Z</time>
      </trkpt>
      <trkpt lat="43.76529" lon="5.36562">
        <ele>225.139947</ele>
        <time>2024-01-30T13:29:18.088Z</time>
      </trkpt>
      <trkpt lat="43.76537" lon="5.36581">
        <ele>225.705298</ele>
        <time>2024-01-30T13:29:24.869Z</time>
      </trkpt>
      <trkpt lat="43.76556" lon="5.36612">
        <ele>226.762331</ele>
        <time>2024-01-30T13:29:37.103Z</time>
      </trkpt>
      <trkpt lat="43.7661" lon="5.36703">
        <ele>229.898218</ele>
        <time>2024-01-30T13:30:09.054Z</time>
      </trkpt>
      <trkpt lat="43.7662" lon="5.36722">
        <ele>230.535934</ele>
        <time>2024-01-30T13:30:15.401Z</time>
      </trkpt>
      <trkpt lat="43.76639" lon="5.36766">
        <ele>231.91625</ele>
        <time>2024-01-30T13:30:29.032Z</time>
      </trkpt>
      <trkpt lat="43.76653" lon="5.36818">
        <ele>233.27033</ele>
        <time>2024-01-30T13:30:43.738Z</time>
      </trkpt>
      <trkpt lat="43.76655" lon="5.36829">
        <ele>233.454707</ele>
        <time>2024-01-30T13:30:46.436Z</time>
      </trkpt>
      <trkpt lat="43.76667" lon="5.3687">
        <ele>234.227753</ele>
        <time>2024-01-30T13:30:57.355Z</time>
      </trkpt>
      <trkpt lat="43.76673" lon="5.36885">
        <ele>234.518944</ele>
        <time>2024-01-30T13:31:01.311Z</time>
      </trkpt>
      <trkpt lat="43.76703" lon="5.36933">
        <ele>235.61349</ele>
        <time>2024-01-30T13:31:14.959Z</time>
      </trkpt>
      <trkpt lat="43.76736" lon="5.36987">
        <ele>236.843388</ele>
        <time>2024-01-30T13:31:29.827Z</time>
      </trkpt>
      <trkpt lat="43.76746" lon="5.37009">
        <ele>237.281959</ele>
        <time>2024-01-30T13:31:35.154Z</time>
      </trkpt>
      <trkpt lat="43.76758" lon="5.37044">
        <ele>237.759909</ele>
        <time>2024-01-30T13:31:43.180Z</time>
      </trkpt>
      <trkpt lat="43.76742" lon="5.37122">
        <ele>238.712119</ele>
        <time>2024-01-30T13:32:05.915Z</time>
      </trkpt>
      <trkpt lat="43.76716" lon="5.37315">
        <ele>241.248639</ele>
        <time>2024-01-30T13:33:02.328Z</time>
      </trkpt>
      <trkpt lat="43.76724" lon="5.37396">
        <ele>242.491646</ele>
        <time>2024-01-30T13:33:27.407Z</time>
      </trkpt>
      <trkpt lat="43.76738" lon="5.37496">
        <ele>244.044604</ele>
        <time>2024-01-30T13:33:59.664Z</time>
      </trkpt>
      <trkpt lat="43.76741" lon="5.3766">
        <ele>247.298175</ele>
        <time>2024-01-30T13:34:52.951Z</time>
      </trkpt>
      <trkpt lat="43.76767" lon="5.37661">
        <ele>248.038782</ele>
        <time>2024-01-30T13:35:05.167Z</time>
      </trkpt>
      <trkpt lat="43.7678" lon="5.37662">
        <ele>248.38121</ele>
        <time>2024-01-30T13:35:10.779Z</time>
      </trkpt>
      <trkpt lat="43.76792" lon="5.37649">
        <ele>248.805181</ele>
        <time>2024-01-30T13:35:17.803Z</time>
      </trkpt>
      <trkpt lat="43.76854" lon="5.37625">
        <ele>251.03204</ele>
        <time>2024-01-30T13:35:48.955Z</time>
      </trkpt>
      <trkpt lat="43.76902" lon="5.3762">
        <ele>252.766057</ele>
        <time>2024-01-30T13:36:13.942Z</time>
      </trkpt>
      <trkpt lat="43.76909" lon="5.37621">
        <ele>253.019192</ele>
        <time>2024-01-30T13:36:17.654Z</time>
      </trkpt>
      <trkpt lat="43.76917" lon="5.37626">
        <ele>253.304767</ele>
        <time>2024-01-30T13:36:21.801Z</time>
      </trkpt>
      <trkpt lat="43.76925" lon="5.37639">
        <ele>253.74559</ele>
        <time>2024-01-30T13:36:28.130Z</time>
      </trkpt>
      <trkpt lat="43.76931" lon="5.37657">
        <ele>254.267675</ele>
        <time>2024-01-30T13:36:35.821Z</time>
      </trkpt>
      <trkpt lat="43.76935" lon="5.37662">
        <ele>254.479111</ele>
        <time>2024-01-30T13:36:39.005Z</time>
      </trkpt>
      <trkpt lat="43.76995" lon="5.37658">
        <ele>256.19484</ele>
        <time>2024-01-30T13:37:07.939Z</time>
      </trkpt>
      <trkpt lat="43.77008" lon="5.37653">
        <ele>256.5195</ele>
        <time>2024-01-30T13:37:14.619Z</time>
      </trkpt>
      <trkpt lat="43.77039" lon="5.37757">
        <ele>258.431251</ele>
        <time>2024-01-30T13:37:40.328Z</time>
      </trkpt>
      <trkpt lat="43.77026" lon="5.37761">
        <ele>258.743198</ele>
        <time>2024-01-30T13:37:43.964Z</time>
      </trkpt>
      <trkpt lat="43.76996" lon="5.37765">
        <ele>259.451722</ele>
        <time>2024-01-30T13:37:52.178Z</time>
      </trkpt>
      <trkpt lat="43.76991" lon="5.3777">
        <ele>259.602557</ele>
        <time>2024-01-30T13:37:53.792Z</time>
      </trkpt>
      <trkpt lat="43.76958" lon="5.37907">
        <ele>260.165231</ele>
        <time>2024-01-30T13:38:18.166Z</time>
      </trkpt>
      <trkpt lat="43.76947" lon="5.37952">
        <ele>260.335574</ele>
        <time>2024-01-30T13:38:25.035Z</time>
      </trkpt>
      <trkpt lat="43.76944" lon="5.37954">
        <ele>260.353219</ele>
        <time>2024-01-30T13:38:25.741Z</time>
      </trkpt>
      <trkpt lat="43.76929" lon="5.37949">
        <ele>260.428703</ele>
        <time>2024-01-30T13:38:28.841Z</time>
      </trkpt>
      <trkpt lat="43.76925" lon="5.37954">
        <ele>260.456131</ele>
        <time>2024-01-30T13:38:29.965Z</time>
      </trkpt>
      <trkpt lat="43.76911" lon="5.38033">
        <ele>260.552413</ele>
        <time>2024-01-30T13:38:42.331Z</time>
      </trkpt>
      <trkpt lat="43.76907" lon="5.38048">
        <ele>260.552413</ele>
        <time>2024-01-30T13:38:44.939Z</time>
      </trkpt>
      <trkpt lat="43.76834" lon="5.38025">
        <ele>260.552413</ele>
        <time>2024-01-30T13:39:01.107Z</time>
      </trkpt>
      <trkpt lat="43.76815" lon="5.38161">
        <ele>260.552413</ele>
        <time>2024-01-30T13:39:21.549Z</time>
      </trkpt>
      <trkpt lat="43.76816" lon="5.38167">
        <ele>260.552413</ele>
        <time>2024-01-30T13:39:24.707Z</time>
      </trkpt>
    </trkseg>
  </trk>
</gpx>